<?xml version="1.0" encoding="utf-8"?>
<gpx xmlns:xsi="http://www.w3.org/2001/XMLSchema-instance" xmlns:xsd="http://www.w3.org/2001/XMLSchema" version="1.1" creator="Shapelink.com" xmlns="http://www.topografix.com/GPX/1/1" xmlns:gpxtpx="http://www.garmin.com/xmlschemas/TrackPointExtension/v1">
  <metadata>
    <name>Løping 3.57 km, 2014-07-24</name>
    <desc></desc>
    <author><name>Mikael Blom</name></author> 
    <time>2014-07-24T20:51:49Z</time>
  </metadata>
  <trk>
    <name>Løping 3.57 km, 2014-07-24</name>
    <trkseg>
      <trkpt lat="59.9540165" lon="17.7148486">
        <ele>46.7612</ele>
        <time>2014-07-24T20:51:49Z</time>
      </trkpt>
      <trkpt lat="59.9540041" lon="17.7148514">
        <ele>46.2806</ele>
        <time>2014-07-24T20:51:50Z</time>
      </trkpt>
      <trkpt lat="59.9539838" lon="17.7148515">
        <ele>45.7999</ele>
        <time>2014-07-24T20:51:51Z</time>
      </trkpt>
      <trkpt lat="59.9539636" lon="17.714846">
        <ele>46.2806</ele>
        <time>2014-07-24T20:51:52Z</time>
      </trkpt>
      <trkpt lat="59.953941" lon="17.7148478">
        <ele>46.2806</ele>
        <time>2014-07-24T20:51:53Z</time>
      </trkpt>
      <trkpt lat="59.9539115" lon="17.7148581">
        <ele>46.2806</ele>
        <time>2014-07-24T20:51:54Z</time>
      </trkpt>
      <trkpt lat="59.9538841" lon="17.7148654">
        <ele>46.7612</ele>
        <time>2014-07-24T20:51:55Z</time>
      </trkpt>
      <trkpt lat="59.95385" lon="17.714883">
        <ele>46.2806</ele>
        <time>2014-07-24T20:51:56Z</time>
      </trkpt>
      <trkpt lat="59.95381" lon="17.7149068">
        <ele>46.2806</ele>
        <time>2014-07-24T20:51:57Z</time>
      </trkpt>
      <trkpt lat="59.9537746" lon="17.7149343">
        <ele>46.7612</ele>
        <time>2014-07-24T20:51:58Z</time>
      </trkpt>
      <trkpt lat="59.9537466" lon="17.7149465">
        <ele>46.7612</ele>
        <time>2014-07-24T20:51:59Z</time>
      </trkpt>
      <trkpt lat="59.9537178" lon="17.7149548">
        <ele>47.2418</ele>
        <time>2014-07-24T20:52:00Z</time>
      </trkpt>
      <trkpt lat="59.9536842" lon="17.7149747">
        <ele>47.2418</ele>
        <time>2014-07-24T20:52:01Z</time>
      </trkpt>
      <trkpt lat="59.9536568" lon="17.7149964">
        <ele>47.2418</ele>
        <time>2014-07-24T20:52:02Z</time>
      </trkpt>
      <trkpt lat="59.9536261" lon="17.715015">
        <ele>47.2418</ele>
        <time>2014-07-24T20:52:03Z</time>
      </trkpt>
      <trkpt lat="59.9535923" lon="17.7150311">
        <ele>47.2418</ele>
        <time>2014-07-24T20:52:04Z</time>
      </trkpt>
      <trkpt lat="59.953558" lon="17.7150659">
        <ele>46.7612</ele>
        <time>2014-07-24T20:52:05Z</time>
      </trkpt>
      <trkpt lat="59.9535242" lon="17.7151016">
        <ele>46.2806</ele>
        <time>2014-07-24T20:52:06Z</time>
      </trkpt>
      <trkpt lat="59.9534948" lon="17.715143">
        <ele>46.2806</ele>
        <time>2014-07-24T20:52:07Z</time>
      </trkpt>
      <trkpt lat="59.9534675" lon="17.7151947">
        <ele>45.7999</ele>
        <time>2014-07-24T20:52:08Z</time>
      </trkpt>
      <trkpt lat="59.9534329" lon="17.7152501">
        <ele>45.7999</ele>
        <time>2014-07-24T20:52:09Z</time>
      </trkpt>
      <trkpt lat="59.9534003" lon="17.7153045">
        <ele>45.3192</ele>
        <time>2014-07-24T20:52:10Z</time>
      </trkpt>
      <trkpt lat="59.9533583" lon="17.7153714">
        <ele>44.8386</ele>
        <time>2014-07-24T20:52:11Z</time>
      </trkpt>
      <trkpt lat="59.9533194" lon="17.7154347">
        <ele>43.8773</ele>
        <time>2014-07-24T20:52:12Z</time>
      </trkpt>
      <trkpt lat="59.9532835" lon="17.7154922">
        <ele>43.3966</ele>
        <time>2014-07-24T20:52:13Z</time>
      </trkpt>
      <trkpt lat="59.9532468" lon="17.7155554">
        <ele>43.3966</ele>
        <time>2014-07-24T20:52:14Z</time>
      </trkpt>
      <trkpt lat="59.9532108" lon="17.715614">
        <ele>42.916</ele>
        <time>2014-07-24T20:52:15Z</time>
      </trkpt>
      <trkpt lat="59.953179" lon="17.7156756">
        <ele>43.3966</ele>
        <time>2014-07-24T20:52:16Z</time>
      </trkpt>
      <trkpt lat="59.9531598" lon="17.7157293">
        <ele>42.4354</ele>
        <time>2014-07-24T20:52:17Z</time>
      </trkpt>
      <trkpt lat="59.953134" lon="17.7157754">
        <ele>40.5128</ele>
        <time>2014-07-24T20:52:18Z</time>
      </trkpt>
      <trkpt lat="59.9531102" lon="17.7158128">
        <ele>39.5513</ele>
        <time>2014-07-24T20:52:19Z</time>
      </trkpt>
      <trkpt lat="59.9530925" lon="17.7158475">
        <ele>39.0707</ele>
        <time>2014-07-24T20:52:20Z</time>
      </trkpt>
      <trkpt lat="59.9530754" lon="17.7158973">
        <ele>38.5901</ele>
        <time>2014-07-24T20:52:21Z</time>
      </trkpt>
      <trkpt lat="59.953069" lon="17.7159269">
        <ele>37.6287</ele>
        <time>2014-07-24T20:52:22Z</time>
      </trkpt>
      <trkpt lat="59.9530578" lon="17.7159517">
        <ele>38.5901</ele>
        <time>2014-07-24T20:52:23Z</time>
      </trkpt>
      <trkpt lat="59.953049" lon="17.7159745">
        <ele>39.5513</ele>
        <time>2014-07-24T20:52:24Z</time>
      </trkpt>
      <trkpt lat="59.9530319" lon="17.7160085">
        <ele>39.0707</ele>
        <time>2014-07-24T20:52:25Z</time>
      </trkpt>
      <trkpt lat="59.9530175" lon="17.7160395">
        <ele>38.5901</ele>
        <time>2014-07-24T20:52:26Z</time>
      </trkpt>
      <trkpt lat="59.9530092" lon="17.7160717">
        <ele>38.1094</ele>
        <time>2014-07-24T20:52:27Z</time>
      </trkpt>
      <trkpt lat="59.9529999" lon="17.7160962">
        <ele>38.5901</ele>
        <time>2014-07-24T20:52:28Z</time>
      </trkpt>
      <trkpt lat="59.9529896" lon="17.7161247">
        <ele>39.0707</ele>
        <time>2014-07-24T20:52:29Z</time>
      </trkpt>
      <trkpt lat="59.9529852" lon="17.7161581">
        <ele>39.5513</ele>
        <time>2014-07-24T20:52:30Z</time>
      </trkpt>
      <trkpt lat="59.9529791" lon="17.7161931">
        <ele>39.5513</ele>
        <time>2014-07-24T20:52:31Z</time>
      </trkpt>
      <trkpt lat="59.9529766" lon="17.7162288">
        <ele>39.5513</ele>
        <time>2014-07-24T20:52:32Z</time>
      </trkpt>
      <trkpt lat="59.952975" lon="17.7162602">
        <ele>39.0707</ele>
        <time>2014-07-24T20:52:33Z</time>
      </trkpt>
      <trkpt lat="59.9529708" lon="17.7162889">
        <ele>39.5513</ele>
        <time>2014-07-24T20:52:34Z</time>
      </trkpt>
      <trkpt lat="59.952963" lon="17.7163244">
        <ele>39.0707</ele>
        <time>2014-07-24T20:52:35Z</time>
      </trkpt>
      <trkpt lat="59.9529532" lon="17.7163607">
        <ele>39.0707</ele>
        <time>2014-07-24T20:52:36Z</time>
      </trkpt>
      <trkpt lat="59.9529434" lon="17.7164044">
        <ele>39.0707</ele>
        <time>2014-07-24T20:52:37Z</time>
      </trkpt>
      <trkpt lat="59.9529383" lon="17.7164385">
        <ele>39.5513</ele>
        <time>2014-07-24T20:52:38Z</time>
      </trkpt>
      <trkpt lat="59.9529354" lon="17.7164721">
        <ele>40.0321</ele>
        <time>2014-07-24T20:52:39Z</time>
      </trkpt>
      <trkpt lat="59.9529375" lon="17.7164982">
        <ele>40.5128</ele>
        <time>2014-07-24T20:52:40Z</time>
      </trkpt>
      <trkpt lat="59.9529395" lon="17.7165256">
        <ele>40.5128</ele>
        <time>2014-07-24T20:52:41Z</time>
      </trkpt>
      <trkpt lat="59.9529369" lon="17.7165634">
        <ele>41.474</ele>
        <time>2014-07-24T20:52:42Z</time>
      </trkpt>
      <trkpt lat="59.9529355" lon="17.7166018">
        <ele>42.4354</ele>
        <time>2014-07-24T20:52:43Z</time>
      </trkpt>
      <trkpt lat="59.952931" lon="17.7166479">
        <ele>42.916</ele>
        <time>2014-07-24T20:52:44Z</time>
      </trkpt>
      <trkpt lat="59.952925" lon="17.716699">
        <ele>44.358</ele>
        <time>2014-07-24T20:52:45Z</time>
      </trkpt>
      <trkpt lat="59.952919" lon="17.7167457">
        <ele>45.3192</ele>
        <time>2014-07-24T20:52:46Z</time>
      </trkpt>
      <trkpt lat="59.9529149" lon="17.7167944">
        <ele>46.2806</ele>
        <time>2014-07-24T20:52:47Z</time>
      </trkpt>
      <trkpt lat="59.9529056" lon="17.7168438">
        <ele>45.3192</ele>
        <time>2014-07-24T20:52:48Z</time>
      </trkpt>
      <trkpt lat="59.9528979" lon="17.7168841">
        <ele>45.7999</ele>
        <time>2014-07-24T20:52:49Z</time>
      </trkpt>
      <trkpt lat="59.9528881" lon="17.716926">
        <ele>46.2806</ele>
        <time>2014-07-24T20:52:50Z</time>
      </trkpt>
      <trkpt lat="59.9528781" lon="17.7169667">
        <ele>45.7999</ele>
        <time>2014-07-24T20:52:51Z</time>
      </trkpt>
      <trkpt lat="59.952876" lon="17.7170105">
        <ele>45.7999</ele>
        <time>2014-07-24T20:52:52Z</time>
      </trkpt>
      <trkpt lat="59.9528774" lon="17.7170597">
        <ele>46.2806</ele>
        <time>2014-07-24T20:52:53Z</time>
      </trkpt>
      <trkpt lat="59.9528774" lon="17.7171142">
        <ele>46.2806</ele>
        <time>2014-07-24T20:52:54Z</time>
      </trkpt>
      <trkpt lat="59.9528714" lon="17.7171705">
        <ele>46.2806</ele>
        <time>2014-07-24T20:52:55Z</time>
      </trkpt>
      <trkpt lat="59.9528677" lon="17.7172244">
        <ele>45.7999</ele>
        <time>2014-07-24T20:52:56Z</time>
      </trkpt>
      <trkpt lat="59.9528639" lon="17.717273">
        <ele>46.2806</ele>
        <time>2014-07-24T20:52:57Z</time>
      </trkpt>
      <trkpt lat="59.9528548" lon="17.7173152">
        <ele>46.2806</ele>
        <time>2014-07-24T20:52:58Z</time>
      </trkpt>
      <trkpt lat="59.9528433" lon="17.7173513">
        <ele>46.7612</ele>
        <time>2014-07-24T20:52:59Z</time>
      </trkpt>
      <trkpt lat="59.9528362" lon="17.717386">
        <ele>46.2806</ele>
        <time>2014-07-24T20:53:00Z</time>
      </trkpt>
      <trkpt lat="59.9528219" lon="17.7174236">
        <ele>46.2806</ele>
        <time>2014-07-24T20:53:01Z</time>
      </trkpt>
      <trkpt lat="59.9528075" lon="17.7174607">
        <ele>46.7612</ele>
        <time>2014-07-24T20:53:02Z</time>
      </trkpt>
      <trkpt lat="59.9528002" lon="17.7174963">
        <ele>47.2418</ele>
        <time>2014-07-24T20:53:03Z</time>
      </trkpt>
      <trkpt lat="59.9527963" lon="17.717527">
        <ele>47.2418</ele>
        <time>2014-07-24T20:53:04Z</time>
      </trkpt>
      <trkpt lat="59.9527889" lon="17.7175553">
        <ele>47.7225</ele>
        <time>2014-07-24T20:53:05Z</time>
      </trkpt>
      <trkpt lat="59.9527796" lon="17.7175804">
        <ele>47.7225</ele>
        <time>2014-07-24T20:53:06Z</time>
      </trkpt>
      <trkpt lat="59.9527678" lon="17.7176101">
        <ele>48.2034</ele>
        <time>2014-07-24T20:53:07Z</time>
      </trkpt>
      <trkpt lat="59.9527542" lon="17.717646">
        <ele>48.2034</ele>
        <time>2014-07-24T20:53:08Z</time>
      </trkpt>
      <trkpt lat="59.9527404" lon="17.7176813">
        <ele>47.7225</ele>
        <time>2014-07-24T20:53:09Z</time>
      </trkpt>
      <trkpt lat="59.9527284" lon="17.7177164">
        <ele>47.2418</ele>
        <time>2014-07-24T20:53:10Z</time>
      </trkpt>
      <trkpt lat="59.9527098" lon="17.7177617">
        <ele>47.2418</ele>
        <time>2014-07-24T20:53:11Z</time>
      </trkpt>
      <trkpt lat="59.9526941" lon="17.7178098">
        <ele>47.7225</ele>
        <time>2014-07-24T20:53:12Z</time>
      </trkpt>
      <trkpt lat="59.9526849" lon="17.7178541">
        <ele>47.2418</ele>
        <time>2014-07-24T20:53:13Z</time>
      </trkpt>
      <trkpt lat="59.9526776" lon="17.717892">
        <ele>47.2418</ele>
        <time>2014-07-24T20:53:14Z</time>
      </trkpt>
      <trkpt lat="59.9526657" lon="17.7179279">
        <ele>47.2418</ele>
        <time>2014-07-24T20:53:15Z</time>
      </trkpt>
      <trkpt lat="59.9526574" lon="17.7179605">
        <ele>45.7999</ele>
        <time>2014-07-24T20:53:16Z</time>
      </trkpt>
      <trkpt lat="59.9526303" lon="17.7180257">
        <ele>45.3192</ele>
        <time>2014-07-24T20:53:18Z</time>
      </trkpt>
      <trkpt lat="59.9526202" lon="17.7180593">
        <ele>44.8386</ele>
        <time>2014-07-24T20:53:19Z</time>
      </trkpt>
      <trkpt lat="59.9526117" lon="17.7180951">
        <ele>43.8773</ele>
        <time>2014-07-24T20:53:20Z</time>
      </trkpt>
      <trkpt lat="59.9526014" lon="17.7181364">
        <ele>43.8773</ele>
        <time>2014-07-24T20:53:21Z</time>
      </trkpt>
      <trkpt lat="59.9525896" lon="17.7181822">
        <ele>43.8773</ele>
        <time>2014-07-24T20:53:22Z</time>
      </trkpt>
      <trkpt lat="59.9525818" lon="17.7182288">
        <ele>43.3966</ele>
        <time>2014-07-24T20:53:23Z</time>
      </trkpt>
      <trkpt lat="59.9525766" lon="17.7182735">
        <ele>42.916</ele>
        <time>2014-07-24T20:53:24Z</time>
      </trkpt>
      <trkpt lat="59.9525698" lon="17.7183214">
        <ele>43.3966</ele>
        <time>2014-07-24T20:53:25Z</time>
      </trkpt>
      <trkpt lat="59.9525609" lon="17.7183732">
        <ele>43.8773</ele>
        <time>2014-07-24T20:53:26Z</time>
      </trkpt>
      <trkpt lat="59.9525555" lon="17.7184244">
        <ele>43.8773</ele>
        <time>2014-07-24T20:53:27Z</time>
      </trkpt>
      <trkpt lat="59.9525492" lon="17.7184707">
        <ele>43.8773</ele>
        <time>2014-07-24T20:53:28Z</time>
      </trkpt>
      <trkpt lat="59.9525394" lon="17.718514">
        <ele>43.8773</ele>
        <time>2014-07-24T20:53:29Z</time>
      </trkpt>
      <trkpt lat="59.9525275" lon="17.7185553">
        <ele>43.8773</ele>
        <time>2014-07-24T20:53:30Z</time>
      </trkpt>
      <trkpt lat="59.952515" lon="17.718607">
        <ele>43.8773</ele>
        <time>2014-07-24T20:53:31Z</time>
      </trkpt>
      <trkpt lat="59.9525046" lon="17.7186589">
        <ele>44.358</ele>
        <time>2014-07-24T20:53:32Z</time>
      </trkpt>
      <trkpt lat="59.9524918" lon="17.7187069">
        <ele>43.8773</ele>
        <time>2014-07-24T20:53:33Z</time>
      </trkpt>
      <trkpt lat="59.9524811" lon="17.7187531">
        <ele>44.358</ele>
        <time>2014-07-24T20:53:34Z</time>
      </trkpt>
      <trkpt lat="59.9524739" lon="17.7187959">
        <ele>43.8773</ele>
        <time>2014-07-24T20:53:35Z</time>
      </trkpt>
      <trkpt lat="59.952464" lon="17.7188426">
        <ele>43.8773</ele>
        <time>2014-07-24T20:53:36Z</time>
      </trkpt>
      <trkpt lat="59.9524513" lon="17.718886">
        <ele>44.8386</ele>
        <time>2014-07-24T20:53:37Z</time>
      </trkpt>
      <trkpt lat="59.9524369" lon="17.7189225">
        <ele>44.8386</ele>
        <time>2014-07-24T20:53:38Z</time>
      </trkpt>
      <trkpt lat="59.9524203" lon="17.7189632">
        <ele>45.7999</ele>
        <time>2014-07-24T20:53:39Z</time>
      </trkpt>
      <trkpt lat="59.9524087" lon="17.7190022">
        <ele>45.7999</ele>
        <time>2014-07-24T20:53:40Z</time>
      </trkpt>
      <trkpt lat="59.9523943" lon="17.7190462">
        <ele>45.7999</ele>
        <time>2014-07-24T20:53:41Z</time>
      </trkpt>
      <trkpt lat="59.9523825" lon="17.7190913">
        <ele>45.3192</ele>
        <time>2014-07-24T20:53:42Z</time>
      </trkpt>
      <trkpt lat="59.952373" lon="17.7191463">
        <ele>44.8386</ele>
        <time>2014-07-24T20:53:43Z</time>
      </trkpt>
      <trkpt lat="59.9523647" lon="17.7191953">
        <ele>44.8386</ele>
        <time>2014-07-24T20:53:44Z</time>
      </trkpt>
      <trkpt lat="59.9523579" lon="17.7192409">
        <ele>45.3192</ele>
        <time>2014-07-24T20:53:45Z</time>
      </trkpt>
      <trkpt lat="59.952358" lon="17.7192866">
        <ele>44.8386</ele>
        <time>2014-07-24T20:53:46Z</time>
      </trkpt>
      <trkpt lat="59.9523554" lon="17.7193347">
        <ele>45.3192</ele>
        <time>2014-07-24T20:53:47Z</time>
      </trkpt>
      <trkpt lat="59.9523537" lon="17.7193757">
        <ele>45.7999</ele>
        <time>2014-07-24T20:53:48Z</time>
      </trkpt>
      <trkpt lat="59.9523555" lon="17.7194206">
        <ele>45.7999</ele>
        <time>2014-07-24T20:53:49Z</time>
      </trkpt>
      <trkpt lat="59.9523549" lon="17.7194688">
        <ele>46.7612</ele>
        <time>2014-07-24T20:53:50Z</time>
      </trkpt>
      <trkpt lat="59.952354" lon="17.7195197">
        <ele>47.7225</ele>
        <time>2014-07-24T20:53:51Z</time>
      </trkpt>
      <trkpt lat="59.9523573" lon="17.7195693">
        <ele>48.2034</ele>
        <time>2014-07-24T20:53:52Z</time>
      </trkpt>
      <trkpt lat="59.9523636" lon="17.7196135">
        <ele>48.684</ele>
        <time>2014-07-24T20:53:53Z</time>
      </trkpt>
      <trkpt lat="59.9523641" lon="17.7196476">
        <ele>49.1646</ele>
        <time>2014-07-24T20:53:54Z</time>
      </trkpt>
      <trkpt lat="59.9523694" lon="17.7196773">
        <ele>50.126</ele>
        <time>2014-07-24T20:53:55Z</time>
      </trkpt>
      <trkpt lat="59.952376" lon="17.7197181">
        <ele>51.0872</ele>
        <time>2014-07-24T20:53:56Z</time>
      </trkpt>
      <trkpt lat="59.9523856" lon="17.7197667">
        <ele>51.5679</ele>
        <time>2014-07-24T20:53:57Z</time>
      </trkpt>
      <trkpt lat="59.9523974" lon="17.7198181">
        <ele>52.0486</ele>
        <time>2014-07-24T20:53:58Z</time>
      </trkpt>
      <trkpt lat="59.9524112" lon="17.7198705">
        <ele>52.5292</ele>
        <time>2014-07-24T20:53:59Z</time>
      </trkpt>
      <trkpt lat="59.9524257" lon="17.7199201">
        <ele>51.5679</ele>
        <time>2014-07-24T20:54:00Z</time>
      </trkpt>
      <trkpt lat="59.9524414" lon="17.7199647">
        <ele>52.5292</ele>
        <time>2014-07-24T20:54:01Z</time>
      </trkpt>
      <trkpt lat="59.9524513" lon="17.7200158">
        <ele>52.5292</ele>
        <time>2014-07-24T20:54:02Z</time>
      </trkpt>
      <trkpt lat="59.952458" lon="17.7200673">
        <ele>53.4905</ele>
        <time>2014-07-24T20:54:03Z</time>
      </trkpt>
      <trkpt lat="59.9524653" lon="17.7201264">
        <ele>53.9712</ele>
        <time>2014-07-24T20:54:04Z</time>
      </trkpt>
      <trkpt lat="59.9524711" lon="17.7201885">
        <ele>53.9712</ele>
        <time>2014-07-24T20:54:05Z</time>
      </trkpt>
      <trkpt lat="59.9524792" lon="17.7202502">
        <ele>54.4518</ele>
        <time>2014-07-24T20:54:06Z</time>
      </trkpt>
      <trkpt lat="59.9524816" lon="17.7203123">
        <ele>54.9324</ele>
        <time>2014-07-24T20:54:07Z</time>
      </trkpt>
      <trkpt lat="59.9524829" lon="17.7203721">
        <ele>54.9324</ele>
        <time>2014-07-24T20:54:08Z</time>
      </trkpt>
      <trkpt lat="59.9524865" lon="17.7204292">
        <ele>54.9324</ele>
        <time>2014-07-24T20:54:09Z</time>
      </trkpt>
      <trkpt lat="59.952487" lon="17.720484">
        <ele>54.4518</ele>
        <time>2014-07-24T20:54:10Z</time>
      </trkpt>
      <trkpt lat="59.9524904" lon="17.7205366">
        <ele>53.9712</ele>
        <time>2014-07-24T20:54:11Z</time>
      </trkpt>
      <trkpt lat="59.9524938" lon="17.7205854">
        <ele>53.9712</ele>
        <time>2014-07-24T20:54:12Z</time>
      </trkpt>
      <trkpt lat="59.9524936" lon="17.720635">
        <ele>53.9712</ele>
        <time>2014-07-24T20:54:13Z</time>
      </trkpt>
      <trkpt lat="59.9524901" lon="17.7206853">
        <ele>53.4905</ele>
        <time>2014-07-24T20:54:14Z</time>
      </trkpt>
      <trkpt lat="59.9524817" lon="17.7207452">
        <ele>53.4905</ele>
        <time>2014-07-24T20:54:15Z</time>
      </trkpt>
      <trkpt lat="59.9524733" lon="17.7208001">
        <ele>53.0098</ele>
        <time>2014-07-24T20:54:16Z</time>
      </trkpt>
      <trkpt lat="59.9524662" lon="17.720851">
        <ele>53.0098</ele>
        <time>2014-07-24T20:54:17Z</time>
      </trkpt>
      <trkpt lat="59.9524568" lon="17.7209158">
        <ele>52.5292</ele>
        <time>2014-07-24T20:54:18Z</time>
      </trkpt>
      <trkpt lat="59.9524487" lon="17.7209757">
        <ele>51.5679</ele>
        <time>2014-07-24T20:54:19Z</time>
      </trkpt>
      <trkpt lat="59.952445" lon="17.7210257">
        <ele>51.5679</ele>
        <time>2014-07-24T20:54:20Z</time>
      </trkpt>
      <trkpt lat="59.9524445" lon="17.7210774">
        <ele>51.0872</ele>
        <time>2014-07-24T20:54:21Z</time>
      </trkpt>
      <trkpt lat="59.9524482" lon="17.7211284">
        <ele>50.6066</ele>
        <time>2014-07-24T20:54:22Z</time>
      </trkpt>
      <trkpt lat="59.9524552" lon="17.7211773">
        <ele>51.0872</ele>
        <time>2014-07-24T20:54:23Z</time>
      </trkpt>
      <trkpt lat="59.9524584" lon="17.7212312">
        <ele>50.6066</ele>
        <time>2014-07-24T20:54:24Z</time>
      </trkpt>
      <trkpt lat="59.9524615" lon="17.7212861">
        <ele>51.0872</ele>
        <time>2014-07-24T20:54:25Z</time>
      </trkpt>
      <trkpt lat="59.9524636" lon="17.7213354">
        <ele>50.6066</ele>
        <time>2014-07-24T20:54:26Z</time>
      </trkpt>
      <trkpt lat="59.9524677" lon="17.721384">
        <ele>50.6066</ele>
        <time>2014-07-24T20:54:27Z</time>
      </trkpt>
      <trkpt lat="59.9524725" lon="17.7214332">
        <ele>50.6066</ele>
        <time>2014-07-24T20:54:28Z</time>
      </trkpt>
      <trkpt lat="59.9524803" lon="17.7214695">
        <ele>50.6066</ele>
        <time>2014-07-24T20:54:29Z</time>
      </trkpt>
      <trkpt lat="59.9524873" lon="17.7215077">
        <ele>50.6066</ele>
        <time>2014-07-24T20:54:30Z</time>
      </trkpt>
      <trkpt lat="59.9524913" lon="17.7215519">
        <ele>51.0872</ele>
        <time>2014-07-24T20:54:31Z</time>
      </trkpt>
      <trkpt lat="59.9524974" lon="17.7216011">
        <ele>51.5679</ele>
        <time>2014-07-24T20:54:32Z</time>
      </trkpt>
      <trkpt lat="59.9525041" lon="17.7216529">
        <ele>51.5679</ele>
        <time>2014-07-24T20:54:33Z</time>
      </trkpt>
      <trkpt lat="59.9525094" lon="17.7217008">
        <ele>51.5679</ele>
        <time>2014-07-24T20:54:34Z</time>
      </trkpt>
      <trkpt lat="59.9525133" lon="17.7217441">
        <ele>51.5679</ele>
        <time>2014-07-24T20:54:35Z</time>
      </trkpt>
      <trkpt lat="59.9525144" lon="17.7217887">
        <ele>51.5679</ele>
        <time>2014-07-24T20:54:36Z</time>
      </trkpt>
      <trkpt lat="59.9525151" lon="17.7218338">
        <ele>52.0486</ele>
        <time>2014-07-24T20:54:37Z</time>
      </trkpt>
      <trkpt lat="59.9525171" lon="17.7218844">
        <ele>51.5679</ele>
        <time>2014-07-24T20:54:38Z</time>
      </trkpt>
      <trkpt lat="59.9525184" lon="17.7219357">
        <ele>51.5679</ele>
        <time>2014-07-24T20:54:39Z</time>
      </trkpt>
      <trkpt lat="59.9525254" lon="17.7219931">
        <ele>51.5679</ele>
        <time>2014-07-24T20:54:40Z</time>
      </trkpt>
      <trkpt lat="59.9525295" lon="17.722049">
        <ele>51.0872</ele>
        <time>2014-07-24T20:54:41Z</time>
      </trkpt>
      <trkpt lat="59.952531" lon="17.7221065">
        <ele>51.0872</ele>
        <time>2014-07-24T20:54:42Z</time>
      </trkpt>
      <trkpt lat="59.9525279" lon="17.7221637">
        <ele>50.126</ele>
        <time>2014-07-24T20:54:43Z</time>
      </trkpt>
      <trkpt lat="59.9525217" lon="17.7222228">
        <ele>50.126</ele>
        <time>2014-07-24T20:54:44Z</time>
      </trkpt>
      <trkpt lat="59.9525158" lon="17.7222743">
        <ele>49.1646</ele>
        <time>2014-07-24T20:54:45Z</time>
      </trkpt>
      <trkpt lat="59.9525106" lon="17.7223294">
        <ele>49.1646</ele>
        <time>2014-07-24T20:54:46Z</time>
      </trkpt>
      <trkpt lat="59.9525041" lon="17.7223832">
        <ele>48.684</ele>
        <time>2014-07-24T20:54:47Z</time>
      </trkpt>
      <trkpt lat="59.9524937" lon="17.7224282">
        <ele>48.684</ele>
        <time>2014-07-24T20:54:48Z</time>
      </trkpt>
      <trkpt lat="59.9524909" lon="17.7224763">
        <ele>48.684</ele>
        <time>2014-07-24T20:54:49Z</time>
      </trkpt>
      <trkpt lat="59.9524861" lon="17.7225236">
        <ele>48.2034</ele>
        <time>2014-07-24T20:54:50Z</time>
      </trkpt>
      <trkpt lat="59.9524822" lon="17.7225755">
        <ele>47.7225</ele>
        <time>2014-07-24T20:54:51Z</time>
      </trkpt>
      <trkpt lat="59.9524735" lon="17.7226298">
        <ele>47.2418</ele>
        <time>2014-07-24T20:54:52Z</time>
      </trkpt>
      <trkpt lat="59.9524663" lon="17.7226823">
        <ele>46.7612</ele>
        <time>2014-07-24T20:54:53Z</time>
      </trkpt>
      <trkpt lat="59.9524593" lon="17.7227345">
        <ele>47.7225</ele>
        <time>2014-07-24T20:54:54Z</time>
      </trkpt>
      <trkpt lat="59.9524559" lon="17.7227911">
        <ele>47.2418</ele>
        <time>2014-07-24T20:54:55Z</time>
      </trkpt>
      <trkpt lat="59.9524611" lon="17.722846">
        <ele>47.7225</ele>
        <time>2014-07-24T20:54:56Z</time>
      </trkpt>
      <trkpt lat="59.9524658" lon="17.7228993">
        <ele>48.2034</ele>
        <time>2014-07-24T20:54:57Z</time>
      </trkpt>
      <trkpt lat="59.9524653" lon="17.7229522">
        <ele>48.2034</ele>
        <time>2014-07-24T20:54:58Z</time>
      </trkpt>
      <trkpt lat="59.9524673" lon="17.72301">
        <ele>48.684</ele>
        <time>2014-07-24T20:54:59Z</time>
      </trkpt>
      <trkpt lat="59.9524733" lon="17.7230672">
        <ele>49.1646</ele>
        <time>2014-07-24T20:55:00Z</time>
      </trkpt>
      <trkpt lat="59.9524796" lon="17.7231164">
        <ele>49.1646</ele>
        <time>2014-07-24T20:55:01Z</time>
      </trkpt>
      <trkpt lat="59.9524933" lon="17.7231593">
        <ele>49.1646</ele>
        <time>2014-07-24T20:55:02Z</time>
      </trkpt>
      <trkpt lat="59.9525125" lon="17.7232069">
        <ele>48.684</ele>
        <time>2014-07-24T20:55:03Z</time>
      </trkpt>
      <trkpt lat="59.9525269" lon="17.7232551">
        <ele>49.1646</ele>
        <time>2014-07-24T20:55:04Z</time>
      </trkpt>
      <trkpt lat="59.9525367" lon="17.7233013">
        <ele>48.684</ele>
        <time>2014-07-24T20:55:05Z</time>
      </trkpt>
      <trkpt lat="59.9525448" lon="17.7233507">
        <ele>48.684</ele>
        <time>2014-07-24T20:55:06Z</time>
      </trkpt>
      <trkpt lat="59.9525554" lon="17.7233996">
        <ele>48.684</ele>
        <time>2014-07-24T20:55:07Z</time>
      </trkpt>
      <trkpt lat="59.9525694" lon="17.7234494">
        <ele>48.684</ele>
        <time>2014-07-24T20:55:08Z</time>
      </trkpt>
      <trkpt lat="59.9525883" lon="17.7234939">
        <ele>48.2034</ele>
        <time>2014-07-24T20:55:09Z</time>
      </trkpt>
      <trkpt lat="59.9525966" lon="17.7235312">
        <ele>47.7225</ele>
        <time>2014-07-24T20:55:10Z</time>
      </trkpt>
      <trkpt lat="59.9525988" lon="17.7235726">
        <ele>47.7225</ele>
        <time>2014-07-24T20:55:11Z</time>
      </trkpt>
      <trkpt lat="59.9526077" lon="17.7236193">
        <ele>47.2418</ele>
        <time>2014-07-24T20:55:12Z</time>
      </trkpt>
      <trkpt lat="59.9526216" lon="17.7236675">
        <ele>47.7225</ele>
        <time>2014-07-24T20:55:13Z</time>
      </trkpt>
      <trkpt lat="59.9526295" lon="17.7237207">
        <ele>47.2418</ele>
        <time>2014-07-24T20:55:14Z</time>
      </trkpt>
      <trkpt lat="59.952631" lon="17.7237801">
        <ele>47.7225</ele>
        <time>2014-07-24T20:55:15Z</time>
      </trkpt>
      <trkpt lat="59.9526352" lon="17.7238377">
        <ele>47.2418</ele>
        <time>2014-07-24T20:55:16Z</time>
      </trkpt>
      <trkpt lat="59.9526481" lon="17.7238928">
        <ele>47.2418</ele>
        <time>2014-07-24T20:55:17Z</time>
      </trkpt>
      <trkpt lat="59.9526532" lon="17.7239441">
        <ele>47.2418</ele>
        <time>2014-07-24T20:55:18Z</time>
      </trkpt>
      <trkpt lat="59.9526523" lon="17.7239982">
        <ele>46.7612</ele>
        <time>2014-07-24T20:55:19Z</time>
      </trkpt>
      <trkpt lat="59.9526491" lon="17.7240506">
        <ele>46.7612</ele>
        <time>2014-07-24T20:55:20Z</time>
      </trkpt>
      <trkpt lat="59.9526409" lon="17.7241006">
        <ele>46.7612</ele>
        <time>2014-07-24T20:55:21Z</time>
      </trkpt>
      <trkpt lat="59.9526248" lon="17.7241529">
        <ele>46.7612</ele>
        <time>2014-07-24T20:55:22Z</time>
      </trkpt>
      <trkpt lat="59.9526087" lon="17.7241931">
        <ele>46.2806</ele>
        <time>2014-07-24T20:55:23Z</time>
      </trkpt>
      <trkpt lat="59.9525896" lon="17.7242294">
        <ele>46.2806</ele>
        <time>2014-07-24T20:55:24Z</time>
      </trkpt>
      <trkpt lat="59.952572" lon="17.7242693">
        <ele>45.7999</ele>
        <time>2014-07-24T20:55:25Z</time>
      </trkpt>
      <trkpt lat="59.9525604" lon="17.7243085">
        <ele>45.7999</ele>
        <time>2014-07-24T20:55:26Z</time>
      </trkpt>
      <trkpt lat="59.9525466" lon="17.7243496">
        <ele>45.3192</ele>
        <time>2014-07-24T20:55:27Z</time>
      </trkpt>
      <trkpt lat="59.9525299" lon="17.7243896">
        <ele>44.8386</ele>
        <time>2014-07-24T20:55:28Z</time>
      </trkpt>
      <trkpt lat="59.9525098" lon="17.7244359">
        <ele>45.3192</ele>
        <time>2014-07-24T20:55:29Z</time>
      </trkpt>
      <trkpt lat="59.9524884" lon="17.7244838">
        <ele>44.8386</ele>
        <time>2014-07-24T20:55:30Z</time>
      </trkpt>
      <trkpt lat="59.9524677" lon="17.7245318">
        <ele>44.8386</ele>
        <time>2014-07-24T20:55:31Z</time>
      </trkpt>
      <trkpt lat="59.9524488" lon="17.7245823">
        <ele>44.358</ele>
        <time>2014-07-24T20:55:32Z</time>
      </trkpt>
      <trkpt lat="59.9524293" lon="17.7246333">
        <ele>43.8773</ele>
        <time>2014-07-24T20:55:33Z</time>
      </trkpt>
      <trkpt lat="59.9524089" lon="17.7246749">
        <ele>43.8773</ele>
        <time>2014-07-24T20:55:34Z</time>
      </trkpt>
      <trkpt lat="59.9523928" lon="17.7247107">
        <ele>43.8773</ele>
        <time>2014-07-24T20:55:35Z</time>
      </trkpt>
      <trkpt lat="59.9523754" lon="17.72474">
        <ele>43.8773</ele>
        <time>2014-07-24T20:55:36Z</time>
      </trkpt>
      <trkpt lat="59.9523532" lon="17.7247743">
        <ele>43.3966</ele>
        <time>2014-07-24T20:55:37Z</time>
      </trkpt>
      <trkpt lat="59.9523285" lon="17.724819">
        <ele>43.3966</ele>
        <time>2014-07-24T20:55:38Z</time>
      </trkpt>
      <trkpt lat="59.9523058" lon="17.7248702">
        <ele>43.3966</ele>
        <time>2014-07-24T20:55:39Z</time>
      </trkpt>
      <trkpt lat="59.9522872" lon="17.7249122">
        <ele>43.3966</ele>
        <time>2014-07-24T20:55:40Z</time>
      </trkpt>
      <trkpt lat="59.9522709" lon="17.7249439">
        <ele>42.4354</ele>
        <time>2014-07-24T20:55:41Z</time>
      </trkpt>
      <trkpt lat="59.9522563" lon="17.7249755">
        <ele>42.4354</ele>
        <time>2014-07-24T20:55:42Z</time>
      </trkpt>
      <trkpt lat="59.9522382" lon="17.725009">
        <ele>42.4354</ele>
        <time>2014-07-24T20:55:43Z</time>
      </trkpt>
      <trkpt lat="59.9522157" lon="17.725051">
        <ele>41.9547</ele>
        <time>2014-07-24T20:55:44Z</time>
      </trkpt>
      <trkpt lat="59.9521933" lon="17.7251021">
        <ele>41.9547</ele>
        <time>2014-07-24T20:55:45Z</time>
      </trkpt>
      <trkpt lat="59.9521773" lon="17.7251451">
        <ele>41.9547</ele>
        <time>2014-07-24T20:55:46Z</time>
      </trkpt>
      <trkpt lat="59.9521621" lon="17.7251872">
        <ele>41.474</ele>
        <time>2014-07-24T20:55:47Z</time>
      </trkpt>
      <trkpt lat="59.9521472" lon="17.7252282">
        <ele>40.9934</ele>
        <time>2014-07-24T20:55:48Z</time>
      </trkpt>
      <trkpt lat="59.9521332" lon="17.7252696">
        <ele>40.9934</ele>
        <time>2014-07-24T20:55:49Z</time>
      </trkpt>
      <trkpt lat="59.9521156" lon="17.7253059">
        <ele>40.9934</ele>
        <time>2014-07-24T20:55:50Z</time>
      </trkpt>
      <trkpt lat="59.9520973" lon="17.7253411">
        <ele>40.9934</ele>
        <time>2014-07-24T20:55:51Z</time>
      </trkpt>
      <trkpt lat="59.9520783" lon="17.7253759">
        <ele>40.0321</ele>
        <time>2014-07-24T20:55:52Z</time>
      </trkpt>
      <trkpt lat="59.9520617" lon="17.7254074">
        <ele>40.0321</ele>
        <time>2014-07-24T20:55:53Z</time>
      </trkpt>
      <trkpt lat="59.952043" lon="17.7254443">
        <ele>40.0321</ele>
        <time>2014-07-24T20:55:54Z</time>
      </trkpt>
      <trkpt lat="59.9520253" lon="17.7254751">
        <ele>39.5513</ele>
        <time>2014-07-24T20:55:55Z</time>
      </trkpt>
      <trkpt lat="59.9520109" lon="17.7255095">
        <ele>39.5513</ele>
        <time>2014-07-24T20:55:56Z</time>
      </trkpt>
      <trkpt lat="59.9519975" lon="17.7255467">
        <ele>39.0707</ele>
        <time>2014-07-24T20:55:57Z</time>
      </trkpt>
      <trkpt lat="59.9519823" lon="17.7255904">
        <ele>39.0707</ele>
        <time>2014-07-24T20:55:58Z</time>
      </trkpt>
      <trkpt lat="59.9519602" lon="17.7256421">
        <ele>38.5901</ele>
        <time>2014-07-24T20:55:59Z</time>
      </trkpt>
      <trkpt lat="59.9519375" lon="17.7256934">
        <ele>38.5901</ele>
        <time>2014-07-24T20:56:00Z</time>
      </trkpt>
      <trkpt lat="59.9519165" lon="17.7257408">
        <ele>38.1094</ele>
        <time>2014-07-24T20:56:01Z</time>
      </trkpt>
      <trkpt lat="59.9519001" lon="17.7257849">
        <ele>38.1094</ele>
        <time>2014-07-24T20:56:02Z</time>
      </trkpt>
      <trkpt lat="59.9518847" lon="17.7258286">
        <ele>37.6287</ele>
        <time>2014-07-24T20:56:03Z</time>
      </trkpt>
      <trkpt lat="59.9518648" lon="17.7258654">
        <ele>37.1481</ele>
        <time>2014-07-24T20:56:04Z</time>
      </trkpt>
      <trkpt lat="59.9518457" lon="17.7258938">
        <ele>37.1481</ele>
        <time>2014-07-24T20:56:05Z</time>
      </trkpt>
      <trkpt lat="59.9518259" lon="17.7259213">
        <ele>37.1481</ele>
        <time>2014-07-24T20:56:06Z</time>
      </trkpt>
      <trkpt lat="59.9518057" lon="17.7259442">
        <ele>37.6287</ele>
        <time>2014-07-24T20:56:07Z</time>
      </trkpt>
      <trkpt lat="59.9517844" lon="17.7259643">
        <ele>37.6287</ele>
        <time>2014-07-24T20:56:08Z</time>
      </trkpt>
      <trkpt lat="59.9517582" lon="17.7259949">
        <ele>37.6287</ele>
        <time>2014-07-24T20:56:09Z</time>
      </trkpt>
      <trkpt lat="59.9517341" lon="17.7260234">
        <ele>37.6287</ele>
        <time>2014-07-24T20:56:10Z</time>
      </trkpt>
      <trkpt lat="59.9517113" lon="17.7260523">
        <ele>37.1481</ele>
        <time>2014-07-24T20:56:11Z</time>
      </trkpt>
      <trkpt lat="59.9516861" lon="17.7260817">
        <ele>37.1481</ele>
        <time>2014-07-24T20:56:12Z</time>
      </trkpt>
      <trkpt lat="59.9516633" lon="17.7261124">
        <ele>37.1481</ele>
        <time>2014-07-24T20:56:13Z</time>
      </trkpt>
      <trkpt lat="59.9516477" lon="17.7261418">
        <ele>37.1481</ele>
        <time>2014-07-24T20:56:14Z</time>
      </trkpt>
      <trkpt lat="59.9516301" lon="17.7261652">
        <ele>37.6287</ele>
        <time>2014-07-24T20:56:15Z</time>
      </trkpt>
      <trkpt lat="59.9516112" lon="17.7261948">
        <ele>37.1481</ele>
        <time>2014-07-24T20:56:16Z</time>
      </trkpt>
      <trkpt lat="59.9515967" lon="17.7262259">
        <ele>37.6287</ele>
        <time>2014-07-24T20:56:17Z</time>
      </trkpt>
      <trkpt lat="59.9515882" lon="17.7262552">
        <ele>37.6287</ele>
        <time>2014-07-24T20:56:18Z</time>
      </trkpt>
      <trkpt lat="59.9515826" lon="17.7262866">
        <ele>38.5901</ele>
        <time>2014-07-24T20:56:19Z</time>
      </trkpt>
      <trkpt lat="59.9515727" lon="17.7263262">
        <ele>39.0707</ele>
        <time>2014-07-24T20:56:20Z</time>
      </trkpt>
      <trkpt lat="59.9515552" lon="17.7263752">
        <ele>39.5513</ele>
        <time>2014-07-24T20:56:21Z</time>
      </trkpt>
      <trkpt lat="59.9515416" lon="17.7264247">
        <ele>40.5128</ele>
        <time>2014-07-24T20:56:22Z</time>
      </trkpt>
      <trkpt lat="59.9515223" lon="17.7264642">
        <ele>40.0321</ele>
        <time>2014-07-24T20:56:23Z</time>
      </trkpt>
      <trkpt lat="59.9514992" lon="17.726502">
        <ele>40.5128</ele>
        <time>2014-07-24T20:56:24Z</time>
      </trkpt>
      <trkpt lat="59.9514846" lon="17.7265513">
        <ele>40.9934</ele>
        <time>2014-07-24T20:56:25Z</time>
      </trkpt>
      <trkpt lat="59.9514733" lon="17.7265979">
        <ele>40.9934</ele>
        <time>2014-07-24T20:56:26Z</time>
      </trkpt>
      <trkpt lat="59.9514613" lon="17.7266398">
        <ele>41.474</ele>
        <time>2014-07-24T20:56:27Z</time>
      </trkpt>
      <trkpt lat="59.9514489" lon="17.7266851">
        <ele>41.9547</ele>
        <time>2014-07-24T20:56:28Z</time>
      </trkpt>
      <trkpt lat="59.9514427" lon="17.726731">
        <ele>42.4354</ele>
        <time>2014-07-24T20:56:29Z</time>
      </trkpt>
      <trkpt lat="59.9514423" lon="17.7267732">
        <ele>42.916</ele>
        <time>2014-07-24T20:56:30Z</time>
      </trkpt>
      <trkpt lat="59.9514457" lon="17.7268153">
        <ele>43.3966</ele>
        <time>2014-07-24T20:56:31Z</time>
      </trkpt>
      <trkpt lat="59.9514514" lon="17.7268609">
        <ele>43.8773</ele>
        <time>2014-07-24T20:56:32Z</time>
      </trkpt>
      <trkpt lat="59.9514622" lon="17.7269141">
        <ele>43.8773</ele>
        <time>2014-07-24T20:56:33Z</time>
      </trkpt>
      <trkpt lat="59.9514731" lon="17.7269636">
        <ele>44.8386</ele>
        <time>2014-07-24T20:56:34Z</time>
      </trkpt>
      <trkpt lat="59.9514827" lon="17.7270132">
        <ele>45.3192</ele>
        <time>2014-07-24T20:56:35Z</time>
      </trkpt>
      <trkpt lat="59.9514929" lon="17.7270666">
        <ele>45.7999</ele>
        <time>2014-07-24T20:56:36Z</time>
      </trkpt>
      <trkpt lat="59.9514979" lon="17.727118">
        <ele>45.7999</ele>
        <time>2014-07-24T20:56:37Z</time>
      </trkpt>
      <trkpt lat="59.9515012" lon="17.7271635">
        <ele>46.2806</ele>
        <time>2014-07-24T20:56:38Z</time>
      </trkpt>
      <trkpt lat="59.9515059" lon="17.7272138">
        <ele>45.7999</ele>
        <time>2014-07-24T20:56:39Z</time>
      </trkpt>
      <trkpt lat="59.9515137" lon="17.7272651">
        <ele>46.7612</ele>
        <time>2014-07-24T20:56:40Z</time>
      </trkpt>
      <trkpt lat="59.9515141" lon="17.7273204">
        <ele>47.7225</ele>
        <time>2014-07-24T20:56:41Z</time>
      </trkpt>
      <trkpt lat="59.9515147" lon="17.7273665">
        <ele>48.2034</ele>
        <time>2014-07-24T20:56:42Z</time>
      </trkpt>
      <trkpt lat="59.9515179" lon="17.7274153">
        <ele>48.2034</ele>
        <time>2014-07-24T20:56:43Z</time>
      </trkpt>
      <trkpt lat="59.95152" lon="17.727467">
        <ele>47.7225</ele>
        <time>2014-07-24T20:56:44Z</time>
      </trkpt>
      <trkpt lat="59.9515195" lon="17.7275152">
        <ele>47.7225</ele>
        <time>2014-07-24T20:56:45Z</time>
      </trkpt>
      <trkpt lat="59.9515209" lon="17.7275586">
        <ele>47.2418</ele>
        <time>2014-07-24T20:56:46Z</time>
      </trkpt>
      <trkpt lat="59.9515239" lon="17.7276052">
        <ele>47.2418</ele>
        <time>2014-07-24T20:56:47Z</time>
      </trkpt>
      <trkpt lat="59.9515245" lon="17.7276592">
        <ele>47.7225</ele>
        <time>2014-07-24T20:56:48Z</time>
      </trkpt>
      <trkpt lat="59.9515251" lon="17.7277101">
        <ele>47.7225</ele>
        <time>2014-07-24T20:56:49Z</time>
      </trkpt>
      <trkpt lat="59.951537" lon="17.7277515">
        <ele>47.7225</ele>
        <time>2014-07-24T20:56:50Z</time>
      </trkpt>
      <trkpt lat="59.9515541" lon="17.7277918">
        <ele>47.7225</ele>
        <time>2014-07-24T20:56:51Z</time>
      </trkpt>
      <trkpt lat="59.9515816" lon="17.7278211">
        <ele>48.2034</ele>
        <time>2014-07-24T20:56:52Z</time>
      </trkpt>
      <trkpt lat="59.9516072" lon="17.7278434">
        <ele>47.7225</ele>
        <time>2014-07-24T20:56:53Z</time>
      </trkpt>
      <trkpt lat="59.9516314" lon="17.7278592">
        <ele>47.2418</ele>
        <time>2014-07-24T20:56:54Z</time>
      </trkpt>
      <trkpt lat="59.9516547" lon="17.7278704">
        <ele>46.7612</ele>
        <time>2014-07-24T20:56:55Z</time>
      </trkpt>
      <trkpt lat="59.951684" lon="17.7278761">
        <ele>47.2418</ele>
        <time>2014-07-24T20:56:56Z</time>
      </trkpt>
      <trkpt lat="59.9517122" lon="17.7278771">
        <ele>47.2418</ele>
        <time>2014-07-24T20:56:57Z</time>
      </trkpt>
      <trkpt lat="59.9517407" lon="17.7278764">
        <ele>48.2034</ele>
        <time>2014-07-24T20:56:58Z</time>
      </trkpt>
      <trkpt lat="59.9517704" lon="17.7278767">
        <ele>48.2034</ele>
        <time>2014-07-24T20:56:59Z</time>
      </trkpt>
      <trkpt lat="59.9518009" lon="17.7278748">
        <ele>48.2034</ele>
        <time>2014-07-24T20:57:00Z</time>
      </trkpt>
      <trkpt lat="59.9518317" lon="17.7278777">
        <ele>47.7225</ele>
        <time>2014-07-24T20:57:01Z</time>
      </trkpt>
      <trkpt lat="59.9518611" lon="17.7278724">
        <ele>47.7225</ele>
        <time>2014-07-24T20:57:02Z</time>
      </trkpt>
      <trkpt lat="59.9518912" lon="17.7278637">
        <ele>47.2418</ele>
        <time>2014-07-24T20:57:03Z</time>
      </trkpt>
      <trkpt lat="59.9519181" lon="17.7278536">
        <ele>46.2806</ele>
        <time>2014-07-24T20:57:04Z</time>
      </trkpt>
      <trkpt lat="59.9519429" lon="17.7278411">
        <ele>45.7999</ele>
        <time>2014-07-24T20:57:05Z</time>
      </trkpt>
      <trkpt lat="59.9519691" lon="17.7278157">
        <ele>46.2806</ele>
        <time>2014-07-24T20:57:06Z</time>
      </trkpt>
      <trkpt lat="59.9519897" lon="17.7277861">
        <ele>45.7999</ele>
        <time>2014-07-24T20:57:07Z</time>
      </trkpt>
      <trkpt lat="59.9520073" lon="17.7277525">
        <ele>44.8386</ele>
        <time>2014-07-24T20:57:08Z</time>
      </trkpt>
      <trkpt lat="59.9520253" lon="17.7277092">
        <ele>44.358</ele>
        <time>2014-07-24T20:57:09Z</time>
      </trkpt>
      <trkpt lat="59.9520413" lon="17.7276633">
        <ele>43.8773</ele>
        <time>2014-07-24T20:57:10Z</time>
      </trkpt>
      <trkpt lat="59.9520546" lon="17.7276208">
        <ele>42.916</ele>
        <time>2014-07-24T20:57:11Z</time>
      </trkpt>
      <trkpt lat="59.9520643" lon="17.7275673">
        <ele>41.9547</ele>
        <time>2014-07-24T20:57:12Z</time>
      </trkpt>
      <trkpt lat="59.9520715" lon="17.7275109">
        <ele>41.9547</ele>
        <time>2014-07-24T20:57:13Z</time>
      </trkpt>
      <trkpt lat="59.9520784" lon="17.727465">
        <ele>42.4354</ele>
        <time>2014-07-24T20:57:14Z</time>
      </trkpt>
      <trkpt lat="59.9520892" lon="17.7274086">
        <ele>41.9547</ele>
        <time>2014-07-24T20:57:15Z</time>
      </trkpt>
      <trkpt lat="59.9521068" lon="17.7273549">
        <ele>42.916</ele>
        <time>2014-07-24T20:57:16Z</time>
      </trkpt>
      <trkpt lat="59.9521226" lon="17.7273062">
        <ele>42.916</ele>
        <time>2014-07-24T20:57:17Z</time>
      </trkpt>
      <trkpt lat="59.9521338" lon="17.7272711">
        <ele>43.8773</ele>
        <time>2014-07-24T20:57:18Z</time>
      </trkpt>
      <trkpt lat="59.9521366" lon="17.7272267">
        <ele>43.3966</ele>
        <time>2014-07-24T20:57:19Z</time>
      </trkpt>
      <trkpt lat="59.9521429" lon="17.7271705">
        <ele>44.358</ele>
        <time>2014-07-24T20:57:20Z</time>
      </trkpt>
      <trkpt lat="59.952147" lon="17.7271125">
        <ele>43.8773</ele>
        <time>2014-07-24T20:57:21Z</time>
      </trkpt>
      <trkpt lat="59.9521456" lon="17.7270493">
        <ele>43.8773</ele>
        <time>2014-07-24T20:57:22Z</time>
      </trkpt>
      <trkpt lat="59.9521462" lon="17.7269753">
        <ele>43.8773</ele>
        <time>2014-07-24T20:57:23Z</time>
      </trkpt>
      <trkpt lat="59.9521502" lon="17.7269019">
        <ele>44.358</ele>
        <time>2014-07-24T20:57:24Z</time>
      </trkpt>
      <trkpt lat="59.9521549" lon="17.7268375">
        <ele>44.358</ele>
        <time>2014-07-24T20:57:25Z</time>
      </trkpt>
      <trkpt lat="59.9521625" lon="17.7267722">
        <ele>44.358</ele>
        <time>2014-07-24T20:57:26Z</time>
      </trkpt>
      <trkpt lat="59.9521701" lon="17.7267035">
        <ele>43.8773</ele>
        <time>2014-07-24T20:57:27Z</time>
      </trkpt>
      <trkpt lat="59.9521794" lon="17.726662">
        <ele>44.358</ele>
        <time>2014-07-24T20:57:28Z</time>
      </trkpt>
      <trkpt lat="59.9521916" lon="17.7266356">
        <ele>44.8386</ele>
        <time>2014-07-24T20:57:29Z</time>
      </trkpt>
      <trkpt lat="59.952203" lon="17.726609">
        <ele>44.358</ele>
        <time>2014-07-24T20:57:30Z</time>
      </trkpt>
      <trkpt lat="59.9522148" lon="17.7265732">
        <ele>43.8773</ele>
        <time>2014-07-24T20:57:31Z</time>
      </trkpt>
      <trkpt lat="59.9522301" lon="17.7265361">
        <ele>43.8773</ele>
        <time>2014-07-24T20:57:32Z</time>
      </trkpt>
      <trkpt lat="59.9522459" lon="17.7264985">
        <ele>43.3966</ele>
        <time>2014-07-24T20:57:33Z</time>
      </trkpt>
      <trkpt lat="59.9522613" lon="17.7264615">
        <ele>43.3966</ele>
        <time>2014-07-24T20:57:34Z</time>
      </trkpt>
      <trkpt lat="59.9522771" lon="17.72643">
        <ele>42.916</ele>
        <time>2014-07-24T20:57:35Z</time>
      </trkpt>
      <trkpt lat="59.9522964" lon="17.7264028">
        <ele>42.916</ele>
        <time>2014-07-24T20:57:36Z</time>
      </trkpt>
      <trkpt lat="59.9523148" lon="17.7263792">
        <ele>41.9547</ele>
        <time>2014-07-24T20:57:37Z</time>
      </trkpt>
      <trkpt lat="59.9523312" lon="17.7263529">
        <ele>41.9547</ele>
        <time>2014-07-24T20:57:38Z</time>
      </trkpt>
      <trkpt lat="59.9523491" lon="17.7263257">
        <ele>41.9547</ele>
        <time>2014-07-24T20:57:39Z</time>
      </trkpt>
      <trkpt lat="59.9523684" lon="17.7262951">
        <ele>41.9547</ele>
        <time>2014-07-24T20:57:40Z</time>
      </trkpt>
      <trkpt lat="59.9523855" lon="17.726259">
        <ele>41.474</ele>
        <time>2014-07-24T20:57:41Z</time>
      </trkpt>
      <trkpt lat="59.9524004" lon="17.7262236">
        <ele>40.9934</ele>
        <time>2014-07-24T20:57:42Z</time>
      </trkpt>
      <trkpt lat="59.9524163" lon="17.7261959">
        <ele>40.0321</ele>
        <time>2014-07-24T20:57:43Z</time>
      </trkpt>
      <trkpt lat="59.9524348" lon="17.7261687">
        <ele>40.0321</ele>
        <time>2014-07-24T20:57:44Z</time>
      </trkpt>
      <trkpt lat="59.952458" lon="17.7261367">
        <ele>39.5513</ele>
        <time>2014-07-24T20:57:45Z</time>
      </trkpt>
      <trkpt lat="59.9524799" lon="17.7261118">
        <ele>39.0707</ele>
        <time>2014-07-24T20:57:46Z</time>
      </trkpt>
      <trkpt lat="59.9524982" lon="17.7260834">
        <ele>38.1094</ele>
        <time>2014-07-24T20:57:47Z</time>
      </trkpt>
      <trkpt lat="59.9525143" lon="17.726049">
        <ele>38.1094</ele>
        <time>2014-07-24T20:57:48Z</time>
      </trkpt>
      <trkpt lat="59.9525332" lon="17.7260275">
        <ele>37.6287</ele>
        <time>2014-07-24T20:57:49Z</time>
      </trkpt>
      <trkpt lat="59.9525559" lon="17.7260053">
        <ele>37.6287</ele>
        <time>2014-07-24T20:57:50Z</time>
      </trkpt>
      <trkpt lat="59.9525761" lon="17.7259736">
        <ele>37.1481</ele>
        <time>2014-07-24T20:57:51Z</time>
      </trkpt>
      <trkpt lat="59.9525962" lon="17.7259467">
        <ele>36.1868</ele>
        <time>2014-07-24T20:57:52Z</time>
      </trkpt>
      <trkpt lat="59.9526139" lon="17.725912">
        <ele>36.6675</ele>
        <time>2014-07-24T20:57:53Z</time>
      </trkpt>
      <trkpt lat="59.9526309" lon="17.7258711">
        <ele>36.6675</ele>
        <time>2014-07-24T20:57:54Z</time>
      </trkpt>
      <trkpt lat="59.9526456" lon="17.7258062">
        <ele>35.7061</ele>
        <time>2014-07-24T20:57:55Z</time>
      </trkpt>
      <trkpt lat="59.9526641" lon="17.7257503">
        <ele>36.1868</ele>
        <time>2014-07-24T20:57:56Z</time>
      </trkpt>
      <trkpt lat="59.9526823" lon="17.7257032">
        <ele>36.1868</ele>
        <time>2014-07-24T20:57:57Z</time>
      </trkpt>
      <trkpt lat="59.9527047" lon="17.7256725">
        <ele>36.1868</ele>
        <time>2014-07-24T20:57:58Z</time>
      </trkpt>
      <trkpt lat="59.9527263" lon="17.7256432">
        <ele>36.1868</ele>
        <time>2014-07-24T20:57:59Z</time>
      </trkpt>
      <trkpt lat="59.9527489" lon="17.7256114">
        <ele>36.1868</ele>
        <time>2014-07-24T20:58:00Z</time>
      </trkpt>
      <trkpt lat="59.9527741" lon="17.7255838">
        <ele>35.7061</ele>
        <time>2014-07-24T20:58:01Z</time>
      </trkpt>
      <trkpt lat="59.9527978" lon="17.7255606">
        <ele>36.1868</ele>
        <time>2014-07-24T20:58:02Z</time>
      </trkpt>
      <trkpt lat="59.952819" lon="17.7255333">
        <ele>36.1868</ele>
        <time>2014-07-24T20:58:03Z</time>
      </trkpt>
      <trkpt lat="59.9528443" lon="17.7255136">
        <ele>36.1868</ele>
        <time>2014-07-24T20:58:04Z</time>
      </trkpt>
      <trkpt lat="59.9528686" lon="17.7254892">
        <ele>36.1868</ele>
        <time>2014-07-24T20:58:05Z</time>
      </trkpt>
      <trkpt lat="59.95289" lon="17.7254559">
        <ele>36.1868</ele>
        <time>2014-07-24T20:58:06Z</time>
      </trkpt>
      <trkpt lat="59.9529154" lon="17.7254284">
        <ele>36.1868</ele>
        <time>2014-07-24T20:58:07Z</time>
      </trkpt>
      <trkpt lat="59.9529429" lon="17.7254093">
        <ele>36.1868</ele>
        <time>2014-07-24T20:58:08Z</time>
      </trkpt>
      <trkpt lat="59.9529662" lon="17.7253847">
        <ele>35.7061</ele>
        <time>2014-07-24T20:58:09Z</time>
      </trkpt>
      <trkpt lat="59.9529891" lon="17.7253509">
        <ele>35.7061</ele>
        <time>2014-07-24T20:58:10Z</time>
      </trkpt>
      <trkpt lat="59.9530081" lon="17.7253151">
        <ele>35.7061</ele>
        <time>2014-07-24T20:58:11Z</time>
      </trkpt>
      <trkpt lat="59.953025" lon="17.7252844">
        <ele>35.2255</ele>
        <time>2014-07-24T20:58:12Z</time>
      </trkpt>
      <trkpt lat="59.9530455" lon="17.7252506">
        <ele>35.2255</ele>
        <time>2014-07-24T20:58:13Z</time>
      </trkpt>
      <trkpt lat="59.9530656" lon="17.7252183">
        <ele>34.2642</ele>
        <time>2014-07-24T20:58:14Z</time>
      </trkpt>
      <trkpt lat="59.9530843" lon="17.725185">
        <ele>34.7449</ele>
        <time>2014-07-24T20:58:15Z</time>
      </trkpt>
      <trkpt lat="59.953105" lon="17.725151">
        <ele>33.7834</ele>
        <time>2014-07-24T20:58:16Z</time>
      </trkpt>
      <trkpt lat="59.9531242" lon="17.7251226">
        <ele>33.7834</ele>
        <time>2014-07-24T20:58:17Z</time>
      </trkpt>
      <trkpt lat="59.9531454" lon="17.72509">
        <ele>33.7834</ele>
        <time>2014-07-24T20:58:18Z</time>
      </trkpt>
      <trkpt lat="59.9531697" lon="17.7250614">
        <ele>33.7834</ele>
        <time>2014-07-24T20:58:19Z</time>
      </trkpt>
      <trkpt lat="59.9531869" lon="17.7250307">
        <ele>33.3029</ele>
        <time>2014-07-24T20:58:20Z</time>
      </trkpt>
      <trkpt lat="59.9531999" lon="17.7249914">
        <ele>33.3029</ele>
        <time>2014-07-24T20:58:21Z</time>
      </trkpt>
      <trkpt lat="59.9532148" lon="17.7249434">
        <ele>33.3029</ele>
        <time>2014-07-24T20:58:22Z</time>
      </trkpt>
      <trkpt lat="59.9532314" lon="17.7248983">
        <ele>33.3029</ele>
        <time>2014-07-24T20:58:23Z</time>
      </trkpt>
      <trkpt lat="59.9532494" lon="17.7248584">
        <ele>32.8223</ele>
        <time>2014-07-24T20:58:24Z</time>
      </trkpt>
      <trkpt lat="59.9532708" lon="17.7248168">
        <ele>33.3029</ele>
        <time>2014-07-24T20:58:25Z</time>
      </trkpt>
      <trkpt lat="59.9532911" lon="17.7247727">
        <ele>32.8223</ele>
        <time>2014-07-24T20:58:26Z</time>
      </trkpt>
      <trkpt lat="59.9533096" lon="17.7247366">
        <ele>32.8223</ele>
        <time>2014-07-24T20:58:27Z</time>
      </trkpt>
      <trkpt lat="59.9533313" lon="17.7246983">
        <ele>32.8223</ele>
        <time>2014-07-24T20:58:28Z</time>
      </trkpt>
      <trkpt lat="59.953352" lon="17.7246606">
        <ele>33.3029</ele>
        <time>2014-07-24T20:58:29Z</time>
      </trkpt>
      <trkpt lat="59.9533698" lon="17.7246304">
        <ele>33.7834</ele>
        <time>2014-07-24T20:58:30Z</time>
      </trkpt>
      <trkpt lat="59.9533909" lon="17.7246017">
        <ele>33.7834</ele>
        <time>2014-07-24T20:58:31Z</time>
      </trkpt>
      <trkpt lat="59.9534117" lon="17.7245724">
        <ele>34.7449</ele>
        <time>2014-07-24T20:58:32Z</time>
      </trkpt>
      <trkpt lat="59.9534312" lon="17.7245372">
        <ele>35.2255</ele>
        <time>2014-07-24T20:58:33Z</time>
      </trkpt>
      <trkpt lat="59.9534534" lon="17.7244983">
        <ele>35.7061</ele>
        <time>2014-07-24T20:58:34Z</time>
      </trkpt>
      <trkpt lat="59.9534742" lon="17.7244543">
        <ele>35.7061</ele>
        <time>2014-07-24T20:58:35Z</time>
      </trkpt>
      <trkpt lat="59.9534933" lon="17.7244116">
        <ele>35.2255</ele>
        <time>2014-07-24T20:58:36Z</time>
      </trkpt>
      <trkpt lat="59.9535137" lon="17.724372">
        <ele>35.2255</ele>
        <time>2014-07-24T20:58:37Z</time>
      </trkpt>
      <trkpt lat="59.9535335" lon="17.7243375">
        <ele>35.2255</ele>
        <time>2014-07-24T20:58:38Z</time>
      </trkpt>
      <trkpt lat="59.9535535" lon="17.7243087">
        <ele>34.7449</ele>
        <time>2014-07-24T20:58:39Z</time>
      </trkpt>
      <trkpt lat="59.9535707" lon="17.7242823">
        <ele>34.2642</ele>
        <time>2014-07-24T20:58:40Z</time>
      </trkpt>
      <trkpt lat="59.9535907" lon="17.7242493">
        <ele>34.7449</ele>
        <time>2014-07-24T20:58:41Z</time>
      </trkpt>
      <trkpt lat="59.9536099" lon="17.7242133">
        <ele>34.2642</ele>
        <time>2014-07-24T20:58:42Z</time>
      </trkpt>
      <trkpt lat="59.9536298" lon="17.7241834">
        <ele>34.2642</ele>
        <time>2014-07-24T20:58:43Z</time>
      </trkpt>
      <trkpt lat="59.9536468" lon="17.7241554">
        <ele>33.3029</ele>
        <time>2014-07-24T20:58:44Z</time>
      </trkpt>
      <trkpt lat="59.9536638" lon="17.7241237">
        <ele>33.3029</ele>
        <time>2014-07-24T20:58:45Z</time>
      </trkpt>
      <trkpt lat="59.953678" lon="17.7240959">
        <ele>33.3029</ele>
        <time>2014-07-24T20:58:46Z</time>
      </trkpt>
      <trkpt lat="59.953695" lon="17.724063">
        <ele>33.3029</ele>
        <time>2014-07-24T20:58:47Z</time>
      </trkpt>
      <trkpt lat="59.9537095" lon="17.7240326">
        <ele>32.3416</ele>
        <time>2014-07-24T20:58:48Z</time>
      </trkpt>
      <trkpt lat="59.9537234" lon="17.724004">
        <ele>32.3416</ele>
        <time>2014-07-24T20:58:49Z</time>
      </trkpt>
      <trkpt lat="59.9537376" lon="17.7239715">
        <ele>32.3416</ele>
        <time>2014-07-24T20:58:50Z</time>
      </trkpt>
      <trkpt lat="59.9537634" lon="17.7239461">
        <ele>32.8223</ele>
        <time>2014-07-24T20:58:51Z</time>
      </trkpt>
      <trkpt lat="59.9537862" lon="17.7239062">
        <ele>32.3416</ele>
        <time>2014-07-24T20:58:52Z</time>
      </trkpt>
      <trkpt lat="59.9538196" lon="17.7238812">
        <ele>33.3029</ele>
        <time>2014-07-24T20:58:53Z</time>
      </trkpt>
      <trkpt lat="59.9538456" lon="17.7238477">
        <ele>32.8223</ele>
        <time>2014-07-24T20:58:54Z</time>
      </trkpt>
      <trkpt lat="59.9538701" lon="17.7238275">
        <ele>33.3029</ele>
        <time>2014-07-24T20:58:55Z</time>
      </trkpt>
      <trkpt lat="59.9538935" lon="17.7238086">
        <ele>32.8223</ele>
        <time>2014-07-24T20:58:56Z</time>
      </trkpt>
      <trkpt lat="59.9539232" lon="17.7237974">
        <ele>34.2642</ele>
        <time>2014-07-24T20:58:57Z</time>
      </trkpt>
      <trkpt lat="59.9539426" lon="17.7237677">
        <ele>33.7834</ele>
        <time>2014-07-24T20:58:58Z</time>
      </trkpt>
      <trkpt lat="59.9539626" lon="17.7237419">
        <ele>33.3029</ele>
        <time>2014-07-24T20:58:59Z</time>
      </trkpt>
      <trkpt lat="59.9539851" lon="17.7237233">
        <ele>33.7834</ele>
        <time>2014-07-24T20:59:00Z</time>
      </trkpt>
      <trkpt lat="59.9540053" lon="17.7236969">
        <ele>33.7834</ele>
        <time>2014-07-24T20:59:01Z</time>
      </trkpt>
      <trkpt lat="59.9540294" lon="17.7236722">
        <ele>33.7834</ele>
        <time>2014-07-24T20:59:02Z</time>
      </trkpt>
      <trkpt lat="59.9540574" lon="17.7236555">
        <ele>34.2642</ele>
        <time>2014-07-24T20:59:03Z</time>
      </trkpt>
      <trkpt lat="59.9540885" lon="17.7236395">
        <ele>34.2642</ele>
        <time>2014-07-24T20:59:04Z</time>
      </trkpt>
      <trkpt lat="59.9541196" lon="17.723596">
        <ele>36.1868</ele>
        <time>2014-07-24T20:59:05Z</time>
      </trkpt>
      <trkpt lat="59.9541456" lon="17.7235569">
        <ele>37.6287</ele>
        <time>2014-07-24T20:59:06Z</time>
      </trkpt>
      <trkpt lat="59.9541731" lon="17.7235398">
        <ele>38.5901</ele>
        <time>2014-07-24T20:59:07Z</time>
      </trkpt>
      <trkpt lat="59.954199" lon="17.723523">
        <ele>39.0707</ele>
        <time>2014-07-24T20:59:08Z</time>
      </trkpt>
      <trkpt lat="59.9542245" lon="17.7235079">
        <ele>39.0707</ele>
        <time>2014-07-24T20:59:09Z</time>
      </trkpt>
      <trkpt lat="59.9542532" lon="17.7234916">
        <ele>40.9934</ele>
        <time>2014-07-24T20:59:10Z</time>
      </trkpt>
      <trkpt lat="59.9542781" lon="17.723482">
        <ele>41.474</ele>
        <time>2014-07-24T20:59:11Z</time>
      </trkpt>
      <trkpt lat="59.9543026" lon="17.7234771">
        <ele>42.4354</ele>
        <time>2014-07-24T20:59:12Z</time>
      </trkpt>
      <trkpt lat="59.9543328" lon="17.7234838">
        <ele>43.3966</ele>
        <time>2014-07-24T20:59:13Z</time>
      </trkpt>
      <trkpt lat="59.9543504" lon="17.7234747">
        <ele>43.3966</ele>
        <time>2014-07-24T20:59:14Z</time>
      </trkpt>
      <trkpt lat="59.9543741" lon="17.7234706">
        <ele>43.8773</ele>
        <time>2014-07-24T20:59:15Z</time>
      </trkpt>
      <trkpt lat="59.9543881" lon="17.7234339">
        <ele>42.916</ele>
        <time>2014-07-24T20:59:16Z</time>
      </trkpt>
      <trkpt lat="59.9544065" lon="17.7234235">
        <ele>42.916</ele>
        <time>2014-07-24T20:59:17Z</time>
      </trkpt>
      <trkpt lat="59.9544336" lon="17.7234315">
        <ele>44.358</ele>
        <time>2014-07-24T20:59:18Z</time>
      </trkpt>
      <trkpt lat="59.9544506" lon="17.7234234">
        <ele>43.8773</ele>
        <time>2014-07-24T20:59:19Z</time>
      </trkpt>
      <trkpt lat="59.9544684" lon="17.7234156">
        <ele>43.8773</ele>
        <time>2014-07-24T20:59:20Z</time>
      </trkpt>
      <trkpt lat="59.9544895" lon="17.723412">
        <ele>44.358</ele>
        <time>2014-07-24T20:59:21Z</time>
      </trkpt>
      <trkpt lat="59.9545109" lon="17.7234141">
        <ele>44.358</ele>
        <time>2014-07-24T20:59:22Z</time>
      </trkpt>
      <trkpt lat="59.9545283" lon="17.7234126">
        <ele>43.8773</ele>
        <time>2014-07-24T20:59:23Z</time>
      </trkpt>
      <trkpt lat="59.9545533" lon="17.7234193">
        <ele>44.358</ele>
        <time>2014-07-24T20:59:24Z</time>
      </trkpt>
      <trkpt lat="59.9545742" lon="17.723426">
        <ele>44.358</ele>
        <time>2014-07-24T20:59:25Z</time>
      </trkpt>
      <trkpt lat="59.9545961" lon="17.7234396">
        <ele>44.8386</ele>
        <time>2014-07-24T20:59:26Z</time>
      </trkpt>
      <trkpt lat="59.9546164" lon="17.7234554">
        <ele>43.8773</ele>
        <time>2014-07-24T20:59:27Z</time>
      </trkpt>
      <trkpt lat="59.9546399" lon="17.7234732">
        <ele>44.358</ele>
        <time>2014-07-24T20:59:28Z</time>
      </trkpt>
      <trkpt lat="59.9546635" lon="17.7234903">
        <ele>44.8386</ele>
        <time>2014-07-24T20:59:29Z</time>
      </trkpt>
      <trkpt lat="59.9546886" lon="17.7235125">
        <ele>45.3192</ele>
        <time>2014-07-24T20:59:30Z</time>
      </trkpt>
      <trkpt lat="59.9547135" lon="17.723532">
        <ele>46.2806</ele>
        <time>2014-07-24T20:59:31Z</time>
      </trkpt>
      <trkpt lat="59.9547379" lon="17.7235564">
        <ele>47.2418</ele>
        <time>2014-07-24T20:59:32Z</time>
      </trkpt>
      <trkpt lat="59.9547627" lon="17.7235808">
        <ele>47.2418</ele>
        <time>2014-07-24T20:59:33Z</time>
      </trkpt>
      <trkpt lat="59.9547809" lon="17.7235938">
        <ele>47.7225</ele>
        <time>2014-07-24T20:59:34Z</time>
      </trkpt>
      <trkpt lat="59.9548" lon="17.7236079">
        <ele>48.2034</ele>
        <time>2014-07-24T20:59:35Z</time>
      </trkpt>
      <trkpt lat="59.9548228" lon="17.723628">
        <ele>48.2034</ele>
        <time>2014-07-24T20:59:36Z</time>
      </trkpt>
      <trkpt lat="59.9548446" lon="17.7236375">
        <ele>49.1646</ele>
        <time>2014-07-24T20:59:37Z</time>
      </trkpt>
      <trkpt lat="59.9548622" lon="17.7236409">
        <ele>49.6453</ele>
        <time>2014-07-24T20:59:38Z</time>
      </trkpt>
      <trkpt lat="59.9548885" lon="17.7236477">
        <ele>49.6453</ele>
        <time>2014-07-24T20:59:39Z</time>
      </trkpt>
      <trkpt lat="59.9549184" lon="17.7236514">
        <ele>48.2034</ele>
        <time>2014-07-24T20:59:40Z</time>
      </trkpt>
      <trkpt lat="59.9549463" lon="17.7236555">
        <ele>47.2418</ele>
        <time>2014-07-24T20:59:41Z</time>
      </trkpt>
      <trkpt lat="59.954973" lon="17.723653">
        <ele>46.2806</ele>
        <time>2014-07-24T20:59:42Z</time>
      </trkpt>
      <trkpt lat="59.9550024" lon="17.723633">
        <ele>45.7999</ele>
        <time>2014-07-24T20:59:43Z</time>
      </trkpt>
      <trkpt lat="59.9550383" lon="17.7236274">
        <ele>46.2806</ele>
        <time>2014-07-24T20:59:44Z</time>
      </trkpt>
      <trkpt lat="59.9550706" lon="17.7236162">
        <ele>47.7225</ele>
        <time>2014-07-24T20:59:45Z</time>
      </trkpt>
      <trkpt lat="59.9551014" lon="17.7236007">
        <ele>46.7612</ele>
        <time>2014-07-24T20:59:46Z</time>
      </trkpt>
      <trkpt lat="59.95513" lon="17.7235928">
        <ele>47.2418</ele>
        <time>2014-07-24T20:59:47Z</time>
      </trkpt>
      <trkpt lat="59.955147" lon="17.7235624">
        <ele>46.7612</ele>
        <time>2014-07-24T20:59:48Z</time>
      </trkpt>
      <trkpt lat="59.9551678" lon="17.7235447">
        <ele>46.7612</ele>
        <time>2014-07-24T20:59:49Z</time>
      </trkpt>
      <trkpt lat="59.9551955" lon="17.7235308">
        <ele>45.3192</ele>
        <time>2014-07-24T20:59:50Z</time>
      </trkpt>
      <trkpt lat="59.9552247" lon="17.7235137">
        <ele>44.8386</ele>
        <time>2014-07-24T20:59:51Z</time>
      </trkpt>
      <trkpt lat="59.9552559" lon="17.7235011">
        <ele>43.8773</ele>
        <time>2014-07-24T20:59:52Z</time>
      </trkpt>
      <trkpt lat="59.9552867" lon="17.7234981">
        <ele>43.3966</ele>
        <time>2014-07-24T20:59:53Z</time>
      </trkpt>
      <trkpt lat="59.9553156" lon="17.7234938">
        <ele>41.9547</ele>
        <time>2014-07-24T20:59:54Z</time>
      </trkpt>
      <trkpt lat="59.9553515" lon="17.7234865">
        <ele>42.4354</ele>
        <time>2014-07-24T20:59:55Z</time>
      </trkpt>
      <trkpt lat="59.9553724" lon="17.7234613">
        <ele>41.9547</ele>
        <time>2014-07-24T20:59:56Z</time>
      </trkpt>
      <trkpt lat="59.9553971" lon="17.7234585">
        <ele>41.474</ele>
        <time>2014-07-24T20:59:57Z</time>
      </trkpt>
      <trkpt lat="59.9554241" lon="17.7234569">
        <ele>41.474</ele>
        <time>2014-07-24T20:59:58Z</time>
      </trkpt>
      <trkpt lat="59.9554531" lon="17.7234543">
        <ele>41.474</ele>
        <time>2014-07-24T20:59:59Z</time>
      </trkpt>
      <trkpt lat="59.9554811" lon="17.7234571">
        <ele>41.9547</ele>
        <time>2014-07-24T21:00:00Z</time>
      </trkpt>
      <trkpt lat="59.9555056" lon="17.7234584">
        <ele>41.9547</ele>
        <time>2014-07-24T21:00:01Z</time>
      </trkpt>
      <trkpt lat="59.9555333" lon="17.7234597">
        <ele>41.9547</ele>
        <time>2014-07-24T21:00:02Z</time>
      </trkpt>
      <trkpt lat="59.9555579" lon="17.7234588">
        <ele>40.9934</ele>
        <time>2014-07-24T21:00:03Z</time>
      </trkpt>
      <trkpt lat="59.955578" lon="17.723456">
        <ele>40.9934</ele>
        <time>2014-07-24T21:00:04Z</time>
      </trkpt>
      <trkpt lat="59.9555983" lon="17.7234606">
        <ele>41.474</ele>
        <time>2014-07-24T21:00:05Z</time>
      </trkpt>
      <trkpt lat="59.9556184" lon="17.7234714">
        <ele>41.9547</ele>
        <time>2014-07-24T21:00:06Z</time>
      </trkpt>
      <trkpt lat="59.9556425" lon="17.7234859">
        <ele>41.9547</ele>
        <time>2014-07-24T21:00:07Z</time>
      </trkpt>
      <trkpt lat="59.9556667" lon="17.7235074">
        <ele>42.4354</ele>
        <time>2014-07-24T21:00:08Z</time>
      </trkpt>
      <trkpt lat="59.9556881" lon="17.723532">
        <ele>41.9547</ele>
        <time>2014-07-24T21:00:09Z</time>
      </trkpt>
      <trkpt lat="59.9557068" lon="17.7235533">
        <ele>41.9547</ele>
        <time>2014-07-24T21:00:10Z</time>
      </trkpt>
      <trkpt lat="59.9557343" lon="17.7235787">
        <ele>43.8773</ele>
        <time>2014-07-24T21:00:11Z</time>
      </trkpt>
      <trkpt lat="59.9557597" lon="17.7235944">
        <ele>44.8386</ele>
        <time>2014-07-24T21:00:12Z</time>
      </trkpt>
      <trkpt lat="59.9557846" lon="17.7236108">
        <ele>45.3192</ele>
        <time>2014-07-24T21:00:13Z</time>
      </trkpt>
      <trkpt lat="59.9558064" lon="17.7236327">
        <ele>45.3192</ele>
        <time>2014-07-24T21:00:14Z</time>
      </trkpt>
      <trkpt lat="59.9558292" lon="17.7236456">
        <ele>45.7999</ele>
        <time>2014-07-24T21:00:15Z</time>
      </trkpt>
      <trkpt lat="59.9558577" lon="17.7236565">
        <ele>46.2806</ele>
        <time>2014-07-24T21:00:16Z</time>
      </trkpt>
      <trkpt lat="59.9558826" lon="17.7236528">
        <ele>45.7999</ele>
        <time>2014-07-24T21:00:17Z</time>
      </trkpt>
      <trkpt lat="59.9559083" lon="17.7236446">
        <ele>45.7999</ele>
        <time>2014-07-24T21:00:18Z</time>
      </trkpt>
      <trkpt lat="59.9559306" lon="17.7236356">
        <ele>45.7999</ele>
        <time>2014-07-24T21:00:19Z</time>
      </trkpt>
      <trkpt lat="59.955953" lon="17.7236176">
        <ele>45.7999</ele>
        <time>2014-07-24T21:00:20Z</time>
      </trkpt>
      <trkpt lat="59.9559711" lon="17.7235944">
        <ele>45.7999</ele>
        <time>2014-07-24T21:00:21Z</time>
      </trkpt>
      <trkpt lat="59.9559893" lon="17.7235721">
        <ele>45.7999</ele>
        <time>2014-07-24T21:00:22Z</time>
      </trkpt>
      <trkpt lat="59.9560057" lon="17.7235418">
        <ele>46.2806</ele>
        <time>2014-07-24T21:00:23Z</time>
      </trkpt>
      <trkpt lat="59.9560224" lon="17.7235093">
        <ele>46.2806</ele>
        <time>2014-07-24T21:00:24Z</time>
      </trkpt>
      <trkpt lat="59.9560372" lon="17.7234732">
        <ele>45.7999</ele>
        <time>2014-07-24T21:00:25Z</time>
      </trkpt>
      <trkpt lat="59.9560483" lon="17.7234198">
        <ele>45.7999</ele>
        <time>2014-07-24T21:00:26Z</time>
      </trkpt>
      <trkpt lat="59.9560577" lon="17.7233649">
        <ele>45.7999</ele>
        <time>2014-07-24T21:00:27Z</time>
      </trkpt>
      <trkpt lat="59.9560665" lon="17.7233126">
        <ele>46.2806</ele>
        <time>2014-07-24T21:00:28Z</time>
      </trkpt>
      <trkpt lat="59.9560756" lon="17.7232539">
        <ele>45.7999</ele>
        <time>2014-07-24T21:00:29Z</time>
      </trkpt>
      <trkpt lat="59.9560795" lon="17.7231945">
        <ele>46.2806</ele>
        <time>2014-07-24T21:00:30Z</time>
      </trkpt>
      <trkpt lat="59.9560811" lon="17.7231509">
        <ele>45.7999</ele>
        <time>2014-07-24T21:00:31Z</time>
      </trkpt>
      <trkpt lat="59.9560813" lon="17.7231008">
        <ele>46.2806</ele>
        <time>2014-07-24T21:00:32Z</time>
      </trkpt>
      <trkpt lat="59.9560776" lon="17.7230646">
        <ele>46.2806</ele>
        <time>2014-07-24T21:00:33Z</time>
      </trkpt>
      <trkpt lat="59.9560681" lon="17.7230366">
        <ele>47.2418</ele>
        <time>2014-07-24T21:00:34Z</time>
      </trkpt>
      <trkpt lat="59.9560628" lon="17.7229995">
        <ele>47.7225</ele>
        <time>2014-07-24T21:00:35Z</time>
      </trkpt>
      <trkpt lat="59.9560509" lon="17.7229492">
        <ele>48.2034</ele>
        <time>2014-07-24T21:00:36Z</time>
      </trkpt>
      <trkpt lat="59.9560406" lon="17.7228883">
        <ele>48.2034</ele>
        <time>2014-07-24T21:00:37Z</time>
      </trkpt>
      <trkpt lat="59.9560348" lon="17.7228252">
        <ele>48.684</ele>
        <time>2014-07-24T21:00:38Z</time>
      </trkpt>
      <trkpt lat="59.9560264" lon="17.7227617">
        <ele>49.6453</ele>
        <time>2014-07-24T21:00:39Z</time>
      </trkpt>
      <trkpt lat="59.9560144" lon="17.7227051">
        <ele>50.6066</ele>
        <time>2014-07-24T21:00:40Z</time>
      </trkpt>
      <trkpt lat="59.9560023" lon="17.7226526">
        <ele>51.0872</ele>
        <time>2014-07-24T21:00:41Z</time>
      </trkpt>
      <trkpt lat="59.9559862" lon="17.7225961">
        <ele>52.0486</ele>
        <time>2014-07-24T21:00:42Z</time>
      </trkpt>
      <trkpt lat="59.9559696" lon="17.7225449">
        <ele>52.0486</ele>
        <time>2014-07-24T21:00:43Z</time>
      </trkpt>
      <trkpt lat="59.9559546" lon="17.7224858">
        <ele>53.4905</ele>
        <time>2014-07-24T21:00:44Z</time>
      </trkpt>
      <trkpt lat="59.9559441" lon="17.7224196">
        <ele>53.9712</ele>
        <time>2014-07-24T21:00:45Z</time>
      </trkpt>
      <trkpt lat="59.9559344" lon="17.7223543">
        <ele>54.4518</ele>
        <time>2014-07-24T21:00:46Z</time>
      </trkpt>
      <trkpt lat="59.9559265" lon="17.7222937">
        <ele>54.4518</ele>
        <time>2014-07-24T21:00:47Z</time>
      </trkpt>
      <trkpt lat="59.955922" lon="17.72223">
        <ele>54.9324</ele>
        <time>2014-07-24T21:00:48Z</time>
      </trkpt>
      <trkpt lat="59.9559183" lon="17.7221598">
        <ele>53.9712</ele>
        <time>2014-07-24T21:00:49Z</time>
      </trkpt>
      <trkpt lat="59.9559136" lon="17.7220912">
        <ele>53.9712</ele>
        <time>2014-07-24T21:00:50Z</time>
      </trkpt>
      <trkpt lat="59.9559136" lon="17.7220321">
        <ele>53.4905</ele>
        <time>2014-07-24T21:00:51Z</time>
      </trkpt>
      <trkpt lat="59.955909" lon="17.7219718">
        <ele>53.0098</ele>
        <time>2014-07-24T21:00:52Z</time>
      </trkpt>
      <trkpt lat="59.9559049" lon="17.721915">
        <ele>53.0098</ele>
        <time>2014-07-24T21:00:53Z</time>
      </trkpt>
      <trkpt lat="59.9559052" lon="17.7218625">
        <ele>53.4905</ele>
        <time>2014-07-24T21:00:54Z</time>
      </trkpt>
      <trkpt lat="59.95591" lon="17.7218112">
        <ele>53.0098</ele>
        <time>2014-07-24T21:00:55Z</time>
      </trkpt>
      <trkpt lat="59.9559173" lon="17.7217487">
        <ele>52.5292</ele>
        <time>2014-07-24T21:00:56Z</time>
      </trkpt>
      <trkpt lat="59.9559224" lon="17.7216918">
        <ele>52.5292</ele>
        <time>2014-07-24T21:00:57Z</time>
      </trkpt>
      <trkpt lat="59.9559261" lon="17.7216398">
        <ele>52.5292</ele>
        <time>2014-07-24T21:00:58Z</time>
      </trkpt>
      <trkpt lat="59.9559313" lon="17.7215855">
        <ele>53.0098</ele>
        <time>2014-07-24T21:00:59Z</time>
      </trkpt>
      <trkpt lat="59.9559357" lon="17.7215306">
        <ele>53.4905</ele>
        <time>2014-07-24T21:01:00Z</time>
      </trkpt>
      <trkpt lat="59.955938" lon="17.7214727">
        <ele>53.4905</ele>
        <time>2014-07-24T21:01:01Z</time>
      </trkpt>
      <trkpt lat="59.9559459" lon="17.7214177">
        <ele>54.4518</ele>
        <time>2014-07-24T21:01:02Z</time>
      </trkpt>
      <trkpt lat="59.9559507" lon="17.7213761">
        <ele>54.9324</ele>
        <time>2014-07-24T21:01:03Z</time>
      </trkpt>
      <trkpt lat="59.9559467" lon="17.7213426">
        <ele>54.9324</ele>
        <time>2014-07-24T21:01:04Z</time>
      </trkpt>
      <trkpt lat="59.9559369" lon="17.7213043">
        <ele>54.9324</ele>
        <time>2014-07-24T21:01:05Z</time>
      </trkpt>
      <trkpt lat="59.9559256" lon="17.7212706">
        <ele>55.4131</ele>
        <time>2014-07-24T21:01:06Z</time>
      </trkpt>
      <trkpt lat="59.9559069" lon="17.7212498">
        <ele>55.4131</ele>
        <time>2014-07-24T21:01:07Z</time>
      </trkpt>
      <trkpt lat="59.955873" lon="17.7212228">
        <ele>54.4518</ele>
        <time>2014-07-24T21:01:08Z</time>
      </trkpt>
      <trkpt lat="59.9558391" lon="17.7212188">
        <ele>54.4518</ele>
        <time>2014-07-24T21:01:09Z</time>
      </trkpt>
      <trkpt lat="59.9558147" lon="17.7212214">
        <ele>54.4518</ele>
        <time>2014-07-24T21:01:10Z</time>
      </trkpt>
      <trkpt lat="59.9557925" lon="17.7212223">
        <ele>54.4518</ele>
        <time>2014-07-24T21:01:11Z</time>
      </trkpt>
      <trkpt lat="59.9557711" lon="17.7212329">
        <ele>54.4518</ele>
        <time>2014-07-24T21:01:12Z</time>
      </trkpt>
      <trkpt lat="59.9557457" lon="17.7212483">
        <ele>54.4518</ele>
        <time>2014-07-24T21:01:13Z</time>
      </trkpt>
      <trkpt lat="59.955714" lon="17.7212768">
        <ele>54.9324</ele>
        <time>2014-07-24T21:01:14Z</time>
      </trkpt>
      <trkpt lat="59.9556826" lon="17.7213214">
        <ele>54.4518</ele>
        <time>2014-07-24T21:01:15Z</time>
      </trkpt>
      <trkpt lat="59.9556583" lon="17.7213841">
        <ele>55.4131</ele>
        <time>2014-07-24T21:01:16Z</time>
      </trkpt>
      <trkpt lat="59.9556334" lon="17.7214498">
        <ele>55.8938</ele>
        <time>2014-07-24T21:01:17Z</time>
      </trkpt>
      <trkpt lat="59.9556011" lon="17.721483">
        <ele>55.8938</ele>
        <time>2014-07-24T21:01:18Z</time>
      </trkpt>
      <trkpt lat="59.9555784" lon="17.7214953">
        <ele>55.8938</ele>
        <time>2014-07-24T21:01:19Z</time>
      </trkpt>
      <trkpt lat="59.9555566" lon="17.7214962">
        <ele>55.8938</ele>
        <time>2014-07-24T21:01:20Z</time>
      </trkpt>
      <trkpt lat="59.9555309" lon="17.7214876">
        <ele>56.3745</ele>
        <time>2014-07-24T21:01:21Z</time>
      </trkpt>
      <trkpt lat="59.9555086" lon="17.7214725">
        <ele>55.8938</ele>
        <time>2014-07-24T21:01:22Z</time>
      </trkpt>
      <trkpt lat="59.9554811" lon="17.7214615">
        <ele>55.8938</ele>
        <time>2014-07-24T21:01:23Z</time>
      </trkpt>
      <trkpt lat="59.9554535" lon="17.7214631">
        <ele>56.8551</ele>
        <time>2014-07-24T21:01:24Z</time>
      </trkpt>
      <trkpt lat="59.9554299" lon="17.7214571">
        <ele>55.8938</ele>
        <time>2014-07-24T21:01:25Z</time>
      </trkpt>
      <trkpt lat="59.9554042" lon="17.7214489">
        <ele>55.8938</ele>
        <time>2014-07-24T21:01:26Z</time>
      </trkpt>
      <trkpt lat="59.9553799" lon="17.7214301">
        <ele>54.9324</ele>
        <time>2014-07-24T21:01:27Z</time>
      </trkpt>
      <trkpt lat="59.9553608" lon="17.7214202">
        <ele>55.8938</ele>
        <time>2014-07-24T21:01:28Z</time>
      </trkpt>
      <trkpt lat="59.9553345" lon="17.7214042">
        <ele>54.4518</ele>
        <time>2014-07-24T21:01:29Z</time>
      </trkpt>
      <trkpt lat="59.955306" lon="17.7213924">
        <ele>53.9712</ele>
        <time>2014-07-24T21:01:30Z</time>
      </trkpt>
      <trkpt lat="59.9552764" lon="17.7213804">
        <ele>54.4518</ele>
        <time>2014-07-24T21:01:31Z</time>
      </trkpt>
      <trkpt lat="59.9552483" lon="17.7213711">
        <ele>54.4518</ele>
        <time>2014-07-24T21:01:32Z</time>
      </trkpt>
      <trkpt lat="59.9552236" lon="17.7213548">
        <ele>53.9712</ele>
        <time>2014-07-24T21:01:33Z</time>
      </trkpt>
      <trkpt lat="59.9551955" lon="17.7213352">
        <ele>53.9712</ele>
        <time>2014-07-24T21:01:34Z</time>
      </trkpt>
      <trkpt lat="59.9551563" lon="17.7213022">
        <ele>53.4905</ele>
        <time>2014-07-24T21:01:35Z</time>
      </trkpt>
      <trkpt lat="59.95512" lon="17.7212975">
        <ele>53.0098</ele>
        <time>2014-07-24T21:01:36Z</time>
      </trkpt>
      <trkpt lat="59.9550852" lon="17.7213134">
        <ele>52.0486</ele>
        <time>2014-07-24T21:01:37Z</time>
      </trkpt>
      <trkpt lat="59.9550491" lon="17.7213291">
        <ele>51.0872</ele>
        <time>2014-07-24T21:01:38Z</time>
      </trkpt>
      <trkpt lat="59.9550231" lon="17.7213317">
        <ele>50.126</ele>
        <time>2014-07-24T21:01:39Z</time>
      </trkpt>
      <trkpt lat="59.9549937" lon="17.7213398">
        <ele>49.6453</ele>
        <time>2014-07-24T21:01:40Z</time>
      </trkpt>
      <trkpt lat="59.9549772" lon="17.7213405">
        <ele>51.0872</ele>
        <time>2014-07-24T21:01:41Z</time>
      </trkpt>
      <trkpt lat="59.9549657" lon="17.7213344">
        <ele>50.6066</ele>
        <time>2014-07-24T21:01:42Z</time>
      </trkpt>
      <trkpt lat="59.9549464" lon="17.7213302">
        <ele>49.6453</ele>
        <time>2014-07-24T21:01:43Z</time>
      </trkpt>
      <trkpt lat="59.9549241" lon="17.7213281">
        <ele>48.684</ele>
        <time>2014-07-24T21:01:44Z</time>
      </trkpt>
      <trkpt lat="59.9548986" lon="17.7213196">
        <ele>48.2034</ele>
        <time>2014-07-24T21:01:45Z</time>
      </trkpt>
      <trkpt lat="59.9548683" lon="17.7212959">
        <ele>47.7225</ele>
        <time>2014-07-24T21:01:46Z</time>
      </trkpt>
      <trkpt lat="59.9548375" lon="17.7212686">
        <ele>47.2418</ele>
        <time>2014-07-24T21:01:47Z</time>
      </trkpt>
      <trkpt lat="59.9548035" lon="17.7212544">
        <ele>46.7612</ele>
        <time>2014-07-24T21:01:48Z</time>
      </trkpt>
      <trkpt lat="59.9547834" lon="17.7212193">
        <ele>47.2418</ele>
        <time>2014-07-24T21:01:49Z</time>
      </trkpt>
      <trkpt lat="59.9547752" lon="17.7211806">
        <ele>46.7612</ele>
        <time>2014-07-24T21:01:50Z</time>
      </trkpt>
      <trkpt lat="59.9547721" lon="17.7211419">
        <ele>46.7612</ele>
        <time>2014-07-24T21:01:51Z</time>
      </trkpt>
      <trkpt lat="59.9547698" lon="17.7211012">
        <ele>46.7612</ele>
        <time>2014-07-24T21:01:52Z</time>
      </trkpt>
      <trkpt lat="59.9547647" lon="17.721055">
        <ele>45.7999</ele>
        <time>2014-07-24T21:01:53Z</time>
      </trkpt>
      <trkpt lat="59.9547625" lon="17.720999">
        <ele>45.7999</ele>
        <time>2014-07-24T21:01:54Z</time>
      </trkpt>
      <trkpt lat="59.9547656" lon="17.7209423">
        <ele>45.3192</ele>
        <time>2014-07-24T21:01:55Z</time>
      </trkpt>
      <trkpt lat="59.9547699" lon="17.720885">
        <ele>44.8386</ele>
        <time>2014-07-24T21:01:56Z</time>
      </trkpt>
      <trkpt lat="59.9547748" lon="17.7208297">
        <ele>44.358</ele>
        <time>2014-07-24T21:01:57Z</time>
      </trkpt>
      <trkpt lat="59.954786" lon="17.7207697">
        <ele>43.8773</ele>
        <time>2014-07-24T21:01:58Z</time>
      </trkpt>
      <trkpt lat="59.9547989" lon="17.7207153">
        <ele>43.3966</ele>
        <time>2014-07-24T21:01:59Z</time>
      </trkpt>
      <trkpt lat="59.9548111" lon="17.7206669">
        <ele>43.3966</ele>
        <time>2014-07-24T21:02:00Z</time>
      </trkpt>
      <trkpt lat="59.9548263" lon="17.7206147">
        <ele>42.916</ele>
        <time>2014-07-24T21:02:01Z</time>
      </trkpt>
      <trkpt lat="59.9548448" lon="17.7205687">
        <ele>42.916</ele>
        <time>2014-07-24T21:02:02Z</time>
      </trkpt>
      <trkpt lat="59.9548699" lon="17.7205226">
        <ele>42.916</ele>
        <time>2014-07-24T21:02:03Z</time>
      </trkpt>
      <trkpt lat="59.9548914" lon="17.7204853">
        <ele>43.3966</ele>
        <time>2014-07-24T21:02:04Z</time>
      </trkpt>
      <trkpt lat="59.9549093" lon="17.7204589">
        <ele>43.8773</ele>
        <time>2014-07-24T21:02:05Z</time>
      </trkpt>
      <trkpt lat="59.9549316" lon="17.7204386">
        <ele>43.8773</ele>
        <time>2014-07-24T21:02:06Z</time>
      </trkpt>
      <trkpt lat="59.9549549" lon="17.7204169">
        <ele>44.358</ele>
        <time>2014-07-24T21:02:07Z</time>
      </trkpt>
      <trkpt lat="59.9549815" lon="17.7203916">
        <ele>45.3192</ele>
        <time>2014-07-24T21:02:08Z</time>
      </trkpt>
      <trkpt lat="59.955009" lon="17.7203687">
        <ele>45.7999</ele>
        <time>2014-07-24T21:02:09Z</time>
      </trkpt>
      <trkpt lat="59.9550383" lon="17.7203475">
        <ele>46.2806</ele>
        <time>2014-07-24T21:02:10Z</time>
      </trkpt>
      <trkpt lat="59.9550668" lon="17.7203262">
        <ele>46.2806</ele>
        <time>2014-07-24T21:02:11Z</time>
      </trkpt>
      <trkpt lat="59.9550958" lon="17.7202947">
        <ele>46.2806</ele>
        <time>2014-07-24T21:02:12Z</time>
      </trkpt>
      <trkpt lat="59.9551231" lon="17.7202535">
        <ele>46.7612</ele>
        <time>2014-07-24T21:02:13Z</time>
      </trkpt>
      <trkpt lat="59.9551521" lon="17.7202195">
        <ele>47.2418</ele>
        <time>2014-07-24T21:02:14Z</time>
      </trkpt>
      <trkpt lat="59.9551786" lon="17.7202043">
        <ele>47.7225</ele>
        <time>2014-07-24T21:02:15Z</time>
      </trkpt>
      <trkpt lat="59.9552018" lon="17.7201936">
        <ele>47.2418</ele>
        <time>2014-07-24T21:02:16Z</time>
      </trkpt>
      <trkpt lat="59.955226" lon="17.7201714">
        <ele>47.2418</ele>
        <time>2014-07-24T21:02:17Z</time>
      </trkpt>
      <trkpt lat="59.9552511" lon="17.7201453">
        <ele>47.2418</ele>
        <time>2014-07-24T21:02:18Z</time>
      </trkpt>
      <trkpt lat="59.9552754" lon="17.7201237">
        <ele>48.2034</ele>
        <time>2014-07-24T21:02:19Z</time>
      </trkpt>
      <trkpt lat="59.9552982" lon="17.7201038">
        <ele>47.7225</ele>
        <time>2014-07-24T21:02:20Z</time>
      </trkpt>
      <trkpt lat="59.95532" lon="17.720085">
        <ele>47.7225</ele>
        <time>2014-07-24T21:02:21Z</time>
      </trkpt>
      <trkpt lat="59.9553434" lon="17.7200729">
        <ele>47.7225</ele>
        <time>2014-07-24T21:02:22Z</time>
      </trkpt>
      <trkpt lat="59.9553685" lon="17.7200641">
        <ele>48.2034</ele>
        <time>2014-07-24T21:02:23Z</time>
      </trkpt>
      <trkpt lat="59.9553916" lon="17.7200486">
        <ele>48.2034</ele>
        <time>2014-07-24T21:02:24Z</time>
      </trkpt>
      <trkpt lat="59.9554169" lon="17.7200311">
        <ele>48.684</ele>
        <time>2014-07-24T21:02:25Z</time>
      </trkpt>
      <trkpt lat="59.9554412" lon="17.7200194">
        <ele>49.6453</ele>
        <time>2014-07-24T21:02:26Z</time>
      </trkpt>
      <trkpt lat="59.9554645" lon="17.7200051">
        <ele>48.684</ele>
        <time>2014-07-24T21:02:27Z</time>
      </trkpt>
      <trkpt lat="59.9554857" lon="17.7199904">
        <ele>48.684</ele>
        <time>2014-07-24T21:02:28Z</time>
      </trkpt>
      <trkpt lat="59.955505" lon="17.7199822">
        <ele>48.684</ele>
        <time>2014-07-24T21:02:29Z</time>
      </trkpt>
      <trkpt lat="59.9555244" lon="17.7199719">
        <ele>48.684</ele>
        <time>2014-07-24T21:02:30Z</time>
      </trkpt>
      <trkpt lat="59.9555443" lon="17.7199643">
        <ele>48.2034</ele>
        <time>2014-07-24T21:02:31Z</time>
      </trkpt>
      <trkpt lat="59.9555635" lon="17.719959">
        <ele>47.7225</ele>
        <time>2014-07-24T21:02:32Z</time>
      </trkpt>
      <trkpt lat="59.9555841" lon="17.7199481">
        <ele>47.2418</ele>
        <time>2014-07-24T21:02:33Z</time>
      </trkpt>
      <trkpt lat="59.955608" lon="17.7199404">
        <ele>46.7612</ele>
        <time>2014-07-24T21:02:34Z</time>
      </trkpt>
      <trkpt lat="59.9556306" lon="17.7199326">
        <ele>46.7612</ele>
        <time>2014-07-24T21:02:35Z</time>
      </trkpt>
      <trkpt lat="59.9556505" lon="17.7199118">
        <ele>47.2418</ele>
        <time>2014-07-24T21:02:36Z</time>
      </trkpt>
      <trkpt lat="59.9556737" lon="17.7198953">
        <ele>46.2806</ele>
        <time>2014-07-24T21:02:37Z</time>
      </trkpt>
      <trkpt lat="59.9557003" lon="17.7198793">
        <ele>45.7999</ele>
        <time>2014-07-24T21:02:38Z</time>
      </trkpt>
      <trkpt lat="59.9557288" lon="17.7198651">
        <ele>45.7999</ele>
        <time>2014-07-24T21:02:39Z</time>
      </trkpt>
      <trkpt lat="59.9557572" lon="17.7198493">
        <ele>45.3192</ele>
        <time>2014-07-24T21:02:40Z</time>
      </trkpt>
      <trkpt lat="59.9557822" lon="17.7198326">
        <ele>45.3192</ele>
        <time>2014-07-24T21:02:41Z</time>
      </trkpt>
      <trkpt lat="59.9558064" lon="17.7198146">
        <ele>45.3192</ele>
        <time>2014-07-24T21:02:42Z</time>
      </trkpt>
      <trkpt lat="59.9558293" lon="17.7197979">
        <ele>45.3192</ele>
        <time>2014-07-24T21:02:43Z</time>
      </trkpt>
      <trkpt lat="59.9558485" lon="17.7197822">
        <ele>45.7999</ele>
        <time>2014-07-24T21:02:44Z</time>
      </trkpt>
      <trkpt lat="59.9558612" lon="17.7197658">
        <ele>46.2806</ele>
        <time>2014-07-24T21:02:45Z</time>
      </trkpt>
      <trkpt lat="59.9558779" lon="17.7197549">
        <ele>46.7612</ele>
        <time>2014-07-24T21:02:46Z</time>
      </trkpt>
      <trkpt lat="59.9558945" lon="17.7197369">
        <ele>46.2806</ele>
        <time>2014-07-24T21:02:47Z</time>
      </trkpt>
      <trkpt lat="59.9559142" lon="17.7197135">
        <ele>46.2806</ele>
        <time>2014-07-24T21:02:48Z</time>
      </trkpt>
      <trkpt lat="59.9559393" lon="17.719699">
        <ele>46.2806</ele>
        <time>2014-07-24T21:02:49Z</time>
      </trkpt>
      <trkpt lat="59.9559647" lon="17.7196886">
        <ele>45.3192</ele>
        <time>2014-07-24T21:02:50Z</time>
      </trkpt>
      <trkpt lat="59.9559877" lon="17.7196765">
        <ele>44.8386</ele>
        <time>2014-07-24T21:02:51Z</time>
      </trkpt>
      <trkpt lat="59.9560125" lon="17.7196677">
        <ele>44.358</ele>
        <time>2014-07-24T21:02:52Z</time>
      </trkpt>
      <trkpt lat="59.9560343" lon="17.7196591">
        <ele>43.8773</ele>
        <time>2014-07-24T21:02:53Z</time>
      </trkpt>
      <trkpt lat="59.9560557" lon="17.7196342">
        <ele>44.8386</ele>
        <time>2014-07-24T21:02:54Z</time>
      </trkpt>
      <trkpt lat="59.9560771" lon="17.7196003">
        <ele>45.7999</ele>
        <time>2014-07-24T21:02:55Z</time>
      </trkpt>
      <trkpt lat="59.956098" lon="17.7195637">
        <ele>46.7612</ele>
        <time>2014-07-24T21:02:56Z</time>
      </trkpt>
      <trkpt lat="59.9561193" lon="17.7195233">
        <ele>47.7225</ele>
        <time>2014-07-24T21:02:57Z</time>
      </trkpt>
      <trkpt lat="59.9561405" lon="17.7194923">
        <ele>47.2418</ele>
        <time>2014-07-24T21:02:58Z</time>
      </trkpt>
      <trkpt lat="59.9561584" lon="17.7194612">
        <ele>47.2418</ele>
        <time>2014-07-24T21:02:59Z</time>
      </trkpt>
      <trkpt lat="59.956175" lon="17.719417">
        <ele>47.7225</ele>
        <time>2014-07-24T21:03:00Z</time>
      </trkpt>
      <trkpt lat="59.9561933" lon="17.7193694">
        <ele>48.2034</ele>
        <time>2014-07-24T21:03:01Z</time>
      </trkpt>
      <trkpt lat="59.9562129" lon="17.7193325">
        <ele>48.2034</ele>
        <time>2014-07-24T21:03:02Z</time>
      </trkpt>
      <trkpt lat="59.95623" lon="17.7192833">
        <ele>48.2034</ele>
        <time>2014-07-24T21:03:03Z</time>
      </trkpt>
      <trkpt lat="59.9562479" lon="17.7192333">
        <ele>48.2034</ele>
        <time>2014-07-24T21:03:04Z</time>
      </trkpt>
      <trkpt lat="59.9562592" lon="17.7191843">
        <ele>47.7225</ele>
        <time>2014-07-24T21:03:05Z</time>
      </trkpt>
      <trkpt lat="59.9562631" lon="17.719121">
        <ele>46.7612</ele>
        <time>2014-07-24T21:03:06Z</time>
      </trkpt>
      <trkpt lat="59.9562527" lon="17.7190137">
        <ele>47.7225</ele>
        <time>2014-07-24T21:03:07Z</time>
      </trkpt>
      <trkpt lat="59.9562472" lon="17.7189271">
        <ele>47.7225</ele>
        <time>2014-07-24T21:03:08Z</time>
      </trkpt>
      <trkpt lat="59.9562426" lon="17.7188401">
        <ele>47.2418</ele>
        <time>2014-07-24T21:03:09Z</time>
      </trkpt>
      <trkpt lat="59.9562336" lon="17.7187541">
        <ele>46.7612</ele>
        <time>2014-07-24T21:03:10Z</time>
      </trkpt>
      <trkpt lat="59.9562225" lon="17.7186908">
        <ele>47.2418</ele>
        <time>2014-07-24T21:03:11Z</time>
      </trkpt>
      <trkpt lat="59.956212" lon="17.7186404">
        <ele>47.2418</ele>
        <time>2014-07-24T21:03:12Z</time>
      </trkpt>
      <trkpt lat="59.956201" lon="17.7185983">
        <ele>46.7612</ele>
        <time>2014-07-24T21:03:13Z</time>
      </trkpt>
      <trkpt lat="59.9561871" lon="17.7185495">
        <ele>46.7612</ele>
        <time>2014-07-24T21:03:14Z</time>
      </trkpt>
      <trkpt lat="59.9561706" lon="17.7184915">
        <ele>47.2418</ele>
        <time>2014-07-24T21:03:15Z</time>
      </trkpt>
      <trkpt lat="59.9561584" lon="17.7184287">
        <ele>47.2418</ele>
        <time>2014-07-24T21:03:16Z</time>
      </trkpt>
      <trkpt lat="59.9561484" lon="17.7183682">
        <ele>47.2418</ele>
        <time>2014-07-24T21:03:17Z</time>
      </trkpt>
      <trkpt lat="59.9561329" lon="17.7183184">
        <ele>46.7612</ele>
        <time>2014-07-24T21:03:18Z</time>
      </trkpt>
      <trkpt lat="59.9561141" lon="17.7182752">
        <ele>46.7612</ele>
        <time>2014-07-24T21:03:19Z</time>
      </trkpt>
      <trkpt lat="59.9560925" lon="17.7182211">
        <ele>46.7612</ele>
        <time>2014-07-24T21:03:20Z</time>
      </trkpt>
      <trkpt lat="59.9560693" lon="17.7181588">
        <ele>46.7612</ele>
        <time>2014-07-24T21:03:21Z</time>
      </trkpt>
      <trkpt lat="59.9560467" lon="17.7180977">
        <ele>46.7612</ele>
        <time>2014-07-24T21:03:22Z</time>
      </trkpt>
      <trkpt lat="59.9560236" lon="17.7180463">
        <ele>46.7612</ele>
        <time>2014-07-24T21:03:23Z</time>
      </trkpt>
      <trkpt lat="59.9560013" lon="17.7180045">
        <ele>46.7612</ele>
        <time>2014-07-24T21:03:24Z</time>
      </trkpt>
      <trkpt lat="59.9559868" lon="17.7179728">
        <ele>48.2034</ele>
        <time>2014-07-24T21:03:25Z</time>
      </trkpt>
      <trkpt lat="59.9559767" lon="17.7179381">
        <ele>48.684</ele>
        <time>2014-07-24T21:03:26Z</time>
      </trkpt>
      <trkpt lat="59.9559588" lon="17.7179103">
        <ele>49.1646</ele>
        <time>2014-07-24T21:03:27Z</time>
      </trkpt>
      <trkpt lat="59.9559359" lon="17.7178802">
        <ele>49.6453</ele>
        <time>2014-07-24T21:03:28Z</time>
      </trkpt>
      <trkpt lat="59.9559115" lon="17.7178428">
        <ele>50.126</ele>
        <time>2014-07-24T21:03:29Z</time>
      </trkpt>
      <trkpt lat="59.9558849" lon="17.7178118">
        <ele>51.0872</ele>
        <time>2014-07-24T21:03:30Z</time>
      </trkpt>
      <trkpt lat="59.955857" lon="17.7177754">
        <ele>51.5679</ele>
        <time>2014-07-24T21:03:31Z</time>
      </trkpt>
      <trkpt lat="59.9558311" lon="17.7177351">
        <ele>52.0486</ele>
        <time>2014-07-24T21:03:32Z</time>
      </trkpt>
      <trkpt lat="59.9558088" lon="17.7176927">
        <ele>53.0098</ele>
        <time>2014-07-24T21:03:33Z</time>
      </trkpt>
      <trkpt lat="59.9557904" lon="17.7176507">
        <ele>53.4905</ele>
        <time>2014-07-24T21:03:34Z</time>
      </trkpt>
      <trkpt lat="59.9557711" lon="17.7176011">
        <ele>53.9712</ele>
        <time>2014-07-24T21:03:35Z</time>
      </trkpt>
      <trkpt lat="59.955751" lon="17.7175526">
        <ele>54.9324</ele>
        <time>2014-07-24T21:03:36Z</time>
      </trkpt>
      <trkpt lat="59.9557301" lon="17.7175057">
        <ele>55.8938</ele>
        <time>2014-07-24T21:03:37Z</time>
      </trkpt>
      <trkpt lat="59.9557161" lon="17.71746">
        <ele>56.3745</ele>
        <time>2014-07-24T21:03:38Z</time>
      </trkpt>
      <trkpt lat="59.9557013" lon="17.7174124">
        <ele>56.8551</ele>
        <time>2014-07-24T21:03:39Z</time>
      </trkpt>
      <trkpt lat="59.9556824" lon="17.717359">
        <ele>57.3358</ele>
        <time>2014-07-24T21:03:40Z</time>
      </trkpt>
      <trkpt lat="59.9556586" lon="17.7173095">
        <ele>57.8165</ele>
        <time>2014-07-24T21:03:41Z</time>
      </trkpt>
      <trkpt lat="59.9556355" lon="17.7172591">
        <ele>58.7777</ele>
        <time>2014-07-24T21:03:42Z</time>
      </trkpt>
      <trkpt lat="59.9556145" lon="17.7172126">
        <ele>58.7777</ele>
        <time>2014-07-24T21:03:43Z</time>
      </trkpt>
      <trkpt lat="59.9555969" lon="17.7171737">
        <ele>58.7777</ele>
        <time>2014-07-24T21:03:44Z</time>
      </trkpt>
      <trkpt lat="59.9555842" lon="17.7171321">
        <ele>59.2584</ele>
        <time>2014-07-24T21:03:45Z</time>
      </trkpt>
      <trkpt lat="59.9555755" lon="17.7170825">
        <ele>59.2584</ele>
        <time>2014-07-24T21:03:46Z</time>
      </trkpt>
      <trkpt lat="59.9555619" lon="17.7170343">
        <ele>59.2584</ele>
        <time>2014-07-24T21:03:47Z</time>
      </trkpt>
      <trkpt lat="59.9555447" lon="17.7169612">
        <ele>58.2971</ele>
        <time>2014-07-24T21:03:48Z</time>
      </trkpt>
      <trkpt lat="59.9555254" lon="17.7168787">
        <ele>58.2971</ele>
        <time>2014-07-24T21:03:49Z</time>
      </trkpt>
      <trkpt lat="59.9555164" lon="17.7168183">
        <ele>58.2971</ele>
        <time>2014-07-24T21:03:50Z</time>
      </trkpt>
      <trkpt lat="59.9555143" lon="17.7167555">
        <ele>57.8165</ele>
        <time>2014-07-24T21:03:51Z</time>
      </trkpt>
      <trkpt lat="59.9555121" lon="17.7166969">
        <ele>57.8165</ele>
        <time>2014-07-24T21:03:52Z</time>
      </trkpt>
      <trkpt lat="59.9555065" lon="17.7166504">
        <ele>57.8165</ele>
        <time>2014-07-24T21:03:53Z</time>
      </trkpt>
      <trkpt lat="59.9555023" lon="17.7166028">
        <ele>57.8165</ele>
        <time>2014-07-24T21:03:54Z</time>
      </trkpt>
      <trkpt lat="59.9555003" lon="17.7165521">
        <ele>57.8165</ele>
        <time>2014-07-24T21:03:55Z</time>
      </trkpt>
      <trkpt lat="59.9554992" lon="17.716495">
        <ele>57.8165</ele>
        <time>2014-07-24T21:03:56Z</time>
      </trkpt>
      <trkpt lat="59.9555011" lon="17.7164389">
        <ele>57.8165</ele>
        <time>2014-07-24T21:03:57Z</time>
      </trkpt>
      <trkpt lat="59.955503" lon="17.7163867">
        <ele>56.8551</ele>
        <time>2014-07-24T21:03:58Z</time>
      </trkpt>
      <trkpt lat="59.9555011" lon="17.7163376">
        <ele>55.8938</ele>
        <time>2014-07-24T21:03:59Z</time>
      </trkpt>
      <trkpt lat="59.9554995" lon="17.7162899">
        <ele>55.8938</ele>
        <time>2014-07-24T21:04:00Z</time>
      </trkpt>
      <trkpt lat="59.9554995" lon="17.7162355">
        <ele>54.9324</ele>
        <time>2014-07-24T21:04:01Z</time>
      </trkpt>
      <trkpt lat="59.9554997" lon="17.7161723">
        <ele>54.4518</ele>
        <time>2014-07-24T21:04:02Z</time>
      </trkpt>
      <trkpt lat="59.9554964" lon="17.716108">
        <ele>53.9712</ele>
        <time>2014-07-24T21:04:03Z</time>
      </trkpt>
      <trkpt lat="59.9554877" lon="17.7160471">
        <ele>53.4905</ele>
        <time>2014-07-24T21:04:04Z</time>
      </trkpt>
      <trkpt lat="59.9554791" lon="17.7159895">
        <ele>53.0098</ele>
        <time>2014-07-24T21:04:05Z</time>
      </trkpt>
      <trkpt lat="59.955471" lon="17.7159304">
        <ele>52.5292</ele>
        <time>2014-07-24T21:04:06Z</time>
      </trkpt>
      <trkpt lat="59.9554593" lon="17.7158574">
        <ele>52.0486</ele>
        <time>2014-07-24T21:04:07Z</time>
      </trkpt>
      <trkpt lat="59.9554491" lon="17.7157859">
        <ele>51.5679</ele>
        <time>2014-07-24T21:04:08Z</time>
      </trkpt>
      <trkpt lat="59.9554428" lon="17.7157237">
        <ele>51.0872</ele>
        <time>2014-07-24T21:04:09Z</time>
      </trkpt>
      <trkpt lat="59.9554384" lon="17.7156679">
        <ele>51.0872</ele>
        <time>2014-07-24T21:04:10Z</time>
      </trkpt>
      <trkpt lat="59.9554328" lon="17.7156196">
        <ele>50.6066</ele>
        <time>2014-07-24T21:04:11Z</time>
      </trkpt>
      <trkpt lat="59.9554271" lon="17.7155609">
        <ele>50.6066</ele>
        <time>2014-07-24T21:04:12Z</time>
      </trkpt>
      <trkpt lat="59.9554227" lon="17.7155036">
        <ele>50.126</ele>
        <time>2014-07-24T21:04:13Z</time>
      </trkpt>
      <trkpt lat="59.9554187" lon="17.7154527">
        <ele>49.6453</ele>
        <time>2014-07-24T21:04:14Z</time>
      </trkpt>
      <trkpt lat="59.955413" lon="17.7154029">
        <ele>49.1646</ele>
        <time>2014-07-24T21:04:15Z</time>
      </trkpt>
      <trkpt lat="59.9554079" lon="17.7153549">
        <ele>48.684</ele>
        <time>2014-07-24T21:04:16Z</time>
      </trkpt>
      <trkpt lat="59.9554025" lon="17.7153052">
        <ele>48.2034</ele>
        <time>2014-07-24T21:04:17Z</time>
      </trkpt>
      <trkpt lat="59.955396" lon="17.7152553">
        <ele>48.2034</ele>
        <time>2014-07-24T21:04:18Z</time>
      </trkpt>
      <trkpt lat="59.9553893" lon="17.7152011">
        <ele>47.2418</ele>
        <time>2014-07-24T21:04:19Z</time>
      </trkpt>
      <trkpt lat="59.9553805" lon="17.715141">
        <ele>46.7612</ele>
        <time>2014-07-24T21:04:20Z</time>
      </trkpt>
      <trkpt lat="59.955375" lon="17.7150947">
        <ele>46.2806</ele>
        <time>2014-07-24T21:04:21Z</time>
      </trkpt>
      <trkpt lat="59.9553703" lon="17.7150611">
        <ele>45.3192</ele>
        <time>2014-07-24T21:04:22Z</time>
      </trkpt>
      <trkpt lat="59.9553619" lon="17.7150275">
        <ele>45.3192</ele>
        <time>2014-07-24T21:04:23Z</time>
      </trkpt>
      <trkpt lat="59.9553532" lon="17.7149818">
        <ele>44.8386</ele>
        <time>2014-07-24T21:04:24Z</time>
      </trkpt>
      <trkpt lat="59.9553449" lon="17.71493">
        <ele>44.358</ele>
        <time>2014-07-24T21:04:25Z</time>
      </trkpt>
      <trkpt lat="59.9553349" lon="17.7148839">
        <ele>43.3966</ele>
        <time>2014-07-24T21:04:26Z</time>
      </trkpt>
      <trkpt lat="59.955325" lon="17.7148468">
        <ele>43.3966</ele>
        <time>2014-07-24T21:04:27Z</time>
      </trkpt>
      <trkpt lat="59.9553165" lon="17.7148079">
        <ele>42.4354</ele>
        <time>2014-07-24T21:04:28Z</time>
      </trkpt>
      <trkpt lat="59.955307" lon="17.7147624">
        <ele>42.4354</ele>
        <time>2014-07-24T21:04:29Z</time>
      </trkpt>
      <trkpt lat="59.9552991" lon="17.7147142">
        <ele>42.4354</ele>
        <time>2014-07-24T21:04:30Z</time>
      </trkpt>
      <trkpt lat="59.9552918" lon="17.7146611">
        <ele>42.916</ele>
        <time>2014-07-24T21:04:31Z</time>
      </trkpt>
      <trkpt lat="59.9552846" lon="17.7146079">
        <ele>42.4354</ele>
        <time>2014-07-24T21:04:32Z</time>
      </trkpt>
      <trkpt lat="59.9552779" lon="17.7145577">
        <ele>42.4354</ele>
        <time>2014-07-24T21:04:33Z</time>
      </trkpt>
      <trkpt lat="59.9552735" lon="17.7145127">
        <ele>41.474</ele>
        <time>2014-07-24T21:04:34Z</time>
      </trkpt>
      <trkpt lat="59.9552668" lon="17.7144691">
        <ele>41.474</ele>
        <time>2014-07-24T21:04:35Z</time>
      </trkpt>
      <trkpt lat="59.9552564" lon="17.714424">
        <ele>41.474</ele>
        <time>2014-07-24T21:04:36Z</time>
      </trkpt>
      <trkpt lat="59.9552434" lon="17.7143723">
        <ele>41.474</ele>
        <time>2014-07-24T21:04:37Z</time>
      </trkpt>
      <trkpt lat="59.9552283" lon="17.7143211">
        <ele>41.474</ele>
        <time>2014-07-24T21:04:38Z</time>
      </trkpt>
      <trkpt lat="59.9552128" lon="17.7142707">
        <ele>41.474</ele>
        <time>2014-07-24T21:04:39Z</time>
      </trkpt>
      <trkpt lat="59.9551981" lon="17.714221">
        <ele>41.474</ele>
        <time>2014-07-24T21:04:40Z</time>
      </trkpt>
      <trkpt lat="59.9551839" lon="17.7141775">
        <ele>41.9547</ele>
        <time>2014-07-24T21:04:41Z</time>
      </trkpt>
      <trkpt lat="59.9551649" lon="17.7141504">
        <ele>41.9547</ele>
        <time>2014-07-24T21:04:42Z</time>
      </trkpt>
      <trkpt lat="59.9551465" lon="17.7141526">
        <ele>41.474</ele>
        <time>2014-07-24T21:04:43Z</time>
      </trkpt>
      <trkpt lat="59.9551347" lon="17.7141768">
        <ele>40.9934</ele>
        <time>2014-07-24T21:04:44Z</time>
      </trkpt>
      <trkpt lat="59.9551276" lon="17.714209">
        <ele>40.5128</ele>
        <time>2014-07-24T21:04:45Z</time>
      </trkpt>
      <trkpt lat="59.9551232" lon="17.7142464">
        <ele>40.5128</ele>
        <time>2014-07-24T21:04:46Z</time>
      </trkpt>
      <trkpt lat="59.9551148" lon="17.7142855">
        <ele>40.0321</ele>
        <time>2014-07-24T21:04:47Z</time>
      </trkpt>
      <trkpt lat="59.9550993" lon="17.7143128">
        <ele>39.5513</ele>
        <time>2014-07-24T21:04:48Z</time>
      </trkpt>
      <trkpt lat="59.95508" lon="17.7143302">
        <ele>39.5513</ele>
        <time>2014-07-24T21:04:49Z</time>
      </trkpt>
      <trkpt lat="59.9550599" lon="17.7143509">
        <ele>39.5513</ele>
        <time>2014-07-24T21:04:50Z</time>
      </trkpt>
      <trkpt lat="59.9550408" lon="17.7143786">
        <ele>39.0707</ele>
        <time>2014-07-24T21:04:51Z</time>
      </trkpt>
      <trkpt lat="59.95502" lon="17.7144167">
        <ele>39.0707</ele>
        <time>2014-07-24T21:04:52Z</time>
      </trkpt>
      <trkpt lat="59.9549968" lon="17.7144603">
        <ele>38.5901</ele>
        <time>2014-07-24T21:04:53Z</time>
      </trkpt>
      <trkpt lat="59.9549714" lon="17.714505">
        <ele>38.5901</ele>
        <time>2014-07-24T21:04:54Z</time>
      </trkpt>
      <trkpt lat="59.954947" lon="17.7145489">
        <ele>38.5901</ele>
        <time>2014-07-24T21:04:55Z</time>
      </trkpt>
      <trkpt lat="59.9549277" lon="17.7145837">
        <ele>38.5901</ele>
        <time>2014-07-24T21:04:56Z</time>
      </trkpt>
      <trkpt lat="59.9549103" lon="17.7146222">
        <ele>39.0707</ele>
        <time>2014-07-24T21:04:57Z</time>
      </trkpt>
      <trkpt lat="59.9548905" lon="17.7146623">
        <ele>39.0707</ele>
        <time>2014-07-24T21:04:58Z</time>
      </trkpt>
      <trkpt lat="59.9548671" lon="17.7147022">
        <ele>39.0707</ele>
        <time>2014-07-24T21:04:59Z</time>
      </trkpt>
      <trkpt lat="59.9548408" lon="17.7147302">
        <ele>38.5901</ele>
        <time>2014-07-24T21:05:00Z</time>
      </trkpt>
      <trkpt lat="59.9548112" lon="17.7147487">
        <ele>38.5901</ele>
        <time>2014-07-24T21:05:01Z</time>
      </trkpt>
      <trkpt lat="59.9547782" lon="17.7147648">
        <ele>38.5901</ele>
        <time>2014-07-24T21:05:02Z</time>
      </trkpt>
      <trkpt lat="59.9547448" lon="17.7147851">
        <ele>38.1094</ele>
        <time>2014-07-24T21:05:03Z</time>
      </trkpt>
      <trkpt lat="59.9547129" lon="17.714793">
        <ele>38.5901</ele>
        <time>2014-07-24T21:05:04Z</time>
      </trkpt>
      <trkpt lat="59.9546854" lon="17.7147834">
        <ele>38.5901</ele>
        <time>2014-07-24T21:05:05Z</time>
      </trkpt>
      <trkpt lat="59.9546611" lon="17.7147707">
        <ele>38.5901</ele>
        <time>2014-07-24T21:05:06Z</time>
      </trkpt>
      <trkpt lat="59.9546369" lon="17.7147621">
        <ele>38.1094</ele>
        <time>2014-07-24T21:05:07Z</time>
      </trkpt>
      <trkpt lat="59.9546099" lon="17.7147683">
        <ele>37.1481</ele>
        <time>2014-07-24T21:05:08Z</time>
      </trkpt>
      <trkpt lat="59.9545844" lon="17.7147715">
        <ele>36.6675</ele>
        <time>2014-07-24T21:05:09Z</time>
      </trkpt>
      <trkpt lat="59.9545559" lon="17.7147706">
        <ele>36.6675</ele>
        <time>2014-07-24T21:05:10Z</time>
      </trkpt>
      <trkpt lat="59.954528" lon="17.714766">
        <ele>36.1868</ele>
        <time>2014-07-24T21:05:11Z</time>
      </trkpt>
      <trkpt lat="59.9545025" lon="17.7147633">
        <ele>36.1868</ele>
        <time>2014-07-24T21:05:12Z</time>
      </trkpt>
      <trkpt lat="59.9544772" lon="17.7147642">
        <ele>35.7061</ele>
        <time>2014-07-24T21:05:13Z</time>
      </trkpt>
      <trkpt lat="59.9544495" lon="17.7147699">
        <ele>36.1868</ele>
        <time>2014-07-24T21:05:14Z</time>
      </trkpt>
      <trkpt lat="59.9544249" lon="17.7147685">
        <ele>35.7061</ele>
        <time>2014-07-24T21:05:15Z</time>
      </trkpt>
      <trkpt lat="59.9543973" lon="17.714769">
        <ele>35.7061</ele>
        <time>2014-07-24T21:05:16Z</time>
      </trkpt>
      <trkpt lat="59.9543703" lon="17.7147712">
        <ele>35.7061</ele>
        <time>2014-07-24T21:05:17Z</time>
      </trkpt>
      <trkpt lat="59.9543482" lon="17.7147658">
        <ele>35.7061</ele>
        <time>2014-07-24T21:05:18Z</time>
      </trkpt>
      <trkpt lat="59.9543143" lon="17.714772">
        <ele>36.1868</ele>
        <time>2014-07-24T21:05:19Z</time>
      </trkpt>
      <trkpt lat="59.9542844" lon="17.71477">
        <ele>36.1868</ele>
        <time>2014-07-24T21:05:20Z</time>
      </trkpt>
      <trkpt lat="59.9542594" lon="17.7147626">
        <ele>36.1868</ele>
        <time>2014-07-24T21:05:21Z</time>
      </trkpt>
      <trkpt lat="59.9542333" lon="17.7147606">
        <ele>36.1868</ele>
        <time>2014-07-24T21:05:22Z</time>
      </trkpt>
      <trkpt lat="59.9542047" lon="17.7147773">
        <ele>36.1868</ele>
        <time>2014-07-24T21:05:23Z</time>
      </trkpt>
      <trkpt lat="59.9541794" lon="17.7147793">
        <ele>36.1868</ele>
        <time>2014-07-24T21:05:24Z</time>
      </trkpt>
      <trkpt lat="59.9541502" lon="17.7147924">
        <ele>36.1868</ele>
        <time>2014-07-24T21:05:25Z</time>
      </trkpt>
      <trkpt lat="59.9541203" lon="17.7148058">
        <ele>36.1868</ele>
        <time>2014-07-24T21:05:26Z</time>
      </trkpt>
      <trkpt lat="59.9540919" lon="17.7148125">
        <ele>35.7061</ele>
        <time>2014-07-24T21:05:27Z</time>
      </trkpt>
      <trkpt lat="59.95407" lon="17.7148175">
        <ele>36.1868</ele>
        <time>2014-07-24T21:05:28Z</time>
      </trkpt>
      <trkpt lat="59.9539574" lon="17.7148871">
        <ele>52.0486</ele>
        <time>2014-07-24T21:06:01Z</time>
      </trkpt>
      <trkpt lat="59.9539548" lon="17.7148869">
        <ele>52.0486</ele>
        <time>2014-07-24T21:06:02Z</time>
      </trkpt>
      <trkpt lat="59.9539479" lon="17.7148934">
        <ele>52.5292</ele>
        <time>2014-07-24T21:06:03Z</time>
      </trkpt>
      <trkpt lat="59.9539357" lon="17.7148852">
        <ele>53.0098</ele>
        <time>2014-07-24T21:06:04Z</time>
      </trkpt>
      <trkpt lat="59.9539203" lon="17.7148852">
        <ele>53.4905</ele>
        <time>2014-07-24T21:06:05Z</time>
      </trkpt>
      <trkpt lat="59.9538959" lon="17.7148994">
        <ele>53.0098</ele>
        <time>2014-07-24T21:06:06Z</time>
      </trkpt>
      <trkpt lat="59.9538685" lon="17.7149139">
        <ele>53.0098</ele>
        <time>2014-07-24T21:06:07Z</time>
      </trkpt>
      <trkpt lat="59.9538389" lon="17.7149216">
        <ele>53.0098</ele>
        <time>2014-07-24T21:06:08Z</time>
      </trkpt>
      <trkpt lat="59.9538162" lon="17.7149399">
        <ele>53.0098</ele>
        <time>2014-07-24T21:06:09Z</time>
      </trkpt>
      <trkpt lat="59.9537854" lon="17.7149633">
        <ele>52.0486</ele>
        <time>2014-07-24T21:06:10Z</time>
      </trkpt>
      <trkpt lat="59.9537541" lon="17.7149814">
        <ele>52.0486</ele>
        <time>2014-07-24T21:06:11Z</time>
      </trkpt>
      <trkpt lat="59.9537249" lon="17.7149939">
        <ele>51.5679</ele>
        <time>2014-07-24T21:06:12Z</time>
      </trkpt>
      <trkpt lat="59.9536981" lon="17.7150099">
        <ele>51.0872</ele>
        <time>2014-07-24T21:06:13Z</time>
      </trkpt>
      <trkpt lat="59.9536718" lon="17.7150335">
        <ele>50.6066</ele>
        <time>2014-07-24T21:06:14Z</time>
      </trkpt>
      <trkpt lat="59.9536448" lon="17.7150618">
        <ele>50.6066</ele>
        <time>2014-07-24T21:06:15Z</time>
      </trkpt>
      <trkpt lat="59.9536177" lon="17.7150949">
        <ele>50.126</ele>
        <time>2014-07-24T21:06:16Z</time>
      </trkpt>
      <trkpt lat="59.9535914" lon="17.7151047">
        <ele>49.6453</ele>
        <time>2014-07-24T21:06:17Z</time>
      </trkpt>
      <trkpt lat="59.9535628" lon="17.7151188">
        <ele>50.126</ele>
        <time>2014-07-24T21:06:18Z</time>
      </trkpt>
      <trkpt lat="59.9535349" lon="17.7151322">
        <ele>50.126</ele>
        <time>2014-07-24T21:06:19Z</time>
      </trkpt>
      <trkpt lat="59.953511" lon="17.7151456">
        <ele>48.684</ele>
        <time>2014-07-24T21:06:20Z</time>
      </trkpt>
      <trkpt lat="59.9534871" lon="17.7151732">
        <ele>48.684</ele>
        <time>2014-07-24T21:06:21Z</time>
      </trkpt>
      <trkpt lat="59.953464" lon="17.7152086">
        <ele>47.7225</ele>
        <time>2014-07-24T21:06:22Z</time>
      </trkpt>
      <trkpt lat="59.9534381" lon="17.7152451">
        <ele>47.2418</ele>
        <time>2014-07-24T21:06:23Z</time>
      </trkpt>
      <trkpt lat="59.9534178" lon="17.7152808">
        <ele>47.2418</ele>
        <time>2014-07-24T21:06:24Z</time>
      </trkpt>
      <trkpt lat="59.9534039" lon="17.715312">
        <ele>47.2418</ele>
        <time>2014-07-24T21:06:25Z</time>
      </trkpt>
      <trkpt lat="59.9533858" lon="17.7153435">
        <ele>47.2418</ele>
        <time>2014-07-24T21:06:26Z</time>
      </trkpt>
      <trkpt lat="59.9533655" lon="17.7153802">
        <ele>47.7225</ele>
        <time>2014-07-24T21:06:27Z</time>
      </trkpt>
      <trkpt lat="59.9533448" lon="17.7154191">
        <ele>47.7225</ele>
        <time>2014-07-24T21:06:28Z</time>
      </trkpt>
      <trkpt lat="59.9533219" lon="17.7154547">
        <ele>47.7225</ele>
        <time>2014-07-24T21:06:29Z</time>
      </trkpt>
      <trkpt lat="59.9533034" lon="17.7154982">
        <ele>48.2034</ele>
        <time>2014-07-24T21:06:30Z</time>
      </trkpt>
      <trkpt lat="59.9532833" lon="17.7155343">
        <ele>48.2034</ele>
        <time>2014-07-24T21:06:31Z</time>
      </trkpt>
      <trkpt lat="59.953263" lon="17.7155673">
        <ele>48.2034</ele>
        <time>2014-07-24T21:06:32Z</time>
      </trkpt>
      <trkpt lat="59.9532429" lon="17.7155972">
        <ele>48.2034</ele>
        <time>2014-07-24T21:06:33Z</time>
      </trkpt>
      <trkpt lat="59.9532273" lon="17.7156227">
        <ele>48.2034</ele>
        <time>2014-07-24T21:06:34Z</time>
      </trkpt>
      <trkpt lat="59.953209" lon="17.7156476">
        <ele>48.684</ele>
        <time>2014-07-24T21:06:35Z</time>
      </trkpt>
      <trkpt lat="59.9531858" lon="17.7156791">
        <ele>49.1646</ele>
        <time>2014-07-24T21:06:36Z</time>
      </trkpt>
      <trkpt lat="59.9531673" lon="17.7157034">
        <ele>48.684</ele>
        <time>2014-07-24T21:06:37Z</time>
      </trkpt>
      <trkpt lat="59.9531515" lon="17.7157268">
        <ele>48.684</ele>
        <time>2014-07-24T21:06:38Z</time>
      </trkpt>
      <trkpt lat="59.9531359" lon="17.7157614">
        <ele>49.1646</ele>
        <time>2014-07-24T21:06:39Z</time>
      </trkpt>
      <trkpt lat="59.9531203" lon="17.7157942">
        <ele>48.684</ele>
        <time>2014-07-24T21:06:40Z</time>
      </trkpt>
      <trkpt lat="59.953109" lon="17.7158242">
        <ele>47.7225</ele>
        <time>2014-07-24T21:06:41Z</time>
      </trkpt>
      <trkpt lat="59.9530978" lon="17.7158594">
        <ele>47.7225</ele>
        <time>2014-07-24T21:06:42Z</time>
      </trkpt>
      <trkpt lat="59.9530869" lon="17.7158936">
        <ele>47.7225</ele>
        <time>2014-07-24T21:06:43Z</time>
      </trkpt>
      <trkpt lat="59.9530744" lon="17.7159339">
        <ele>47.2418</ele>
        <time>2014-07-24T21:06:44Z</time>
      </trkpt>
      <trkpt lat="59.9530568" lon="17.7159801">
        <ele>47.2418</ele>
        <time>2014-07-24T21:06:45Z</time>
      </trkpt>
      <trkpt lat="59.9530354" lon="17.7160376">
        <ele>47.7225</ele>
        <time>2014-07-24T21:06:46Z</time>
      </trkpt>
      <trkpt lat="59.9530173" lon="17.716093">
        <ele>48.2034</ele>
        <time>2014-07-24T21:06:47Z</time>
      </trkpt>
      <trkpt lat="59.9529999" lon="17.7161469">
        <ele>48.2034</ele>
        <time>2014-07-24T21:06:48Z</time>
      </trkpt>
      <trkpt lat="59.9529878" lon="17.7162038">
        <ele>47.7225</ele>
        <time>2014-07-24T21:06:49Z</time>
      </trkpt>
      <trkpt lat="59.952976" lon="17.7162574">
        <ele>47.7225</ele>
        <time>2014-07-24T21:06:50Z</time>
      </trkpt>
      <trkpt lat="59.9529651" lon="17.7163063">
        <ele>47.2418</ele>
        <time>2014-07-24T21:06:51Z</time>
      </trkpt>
      <trkpt lat="59.9529548" lon="17.7163655">
        <ele>46.7612</ele>
        <time>2014-07-24T21:06:52Z</time>
      </trkpt>
      <trkpt lat="59.9529457" lon="17.7164249">
        <ele>46.2806</ele>
        <time>2014-07-24T21:06:53Z</time>
      </trkpt>
      <trkpt lat="59.9529375" lon="17.7164827">
        <ele>45.3192</ele>
        <time>2014-07-24T21:06:54Z</time>
      </trkpt>
      <trkpt lat="59.9529329" lon="17.716539">
        <ele>44.8386</ele>
        <time>2014-07-24T21:06:55Z</time>
      </trkpt>
      <trkpt lat="59.9529295" lon="17.7165914">
        <ele>43.8773</ele>
        <time>2014-07-24T21:06:56Z</time>
      </trkpt>
      <trkpt lat="59.9529282" lon="17.7166378">
        <ele>43.3966</ele>
        <time>2014-07-24T21:06:57Z</time>
      </trkpt>
      <trkpt lat="59.9529264" lon="17.716692">
        <ele>43.3966</ele>
        <time>2014-07-24T21:06:58Z</time>
      </trkpt>
      <trkpt lat="59.9529214" lon="17.716745">
        <ele>42.916</ele>
        <time>2014-07-24T21:06:59Z</time>
      </trkpt>
      <trkpt lat="59.9529205" lon="17.7167997">
        <ele>43.3966</ele>
        <time>2014-07-24T21:07:00Z</time>
      </trkpt>
      <trkpt lat="59.952919" lon="17.716855">
        <ele>43.8773</ele>
        <time>2014-07-24T21:07:01Z</time>
      </trkpt>
      <trkpt lat="59.9529112" lon="17.7169026">
        <ele>43.3966</ele>
        <time>2014-07-24T21:07:02Z</time>
      </trkpt>
      <trkpt lat="59.9529071" lon="17.7169488">
        <ele>44.358</ele>
        <time>2014-07-24T21:07:03Z</time>
      </trkpt>
      <trkpt lat="59.9529066" lon="17.7169979">
        <ele>44.8386</ele>
        <time>2014-07-24T21:07:04Z</time>
      </trkpt>
      <trkpt lat="59.9529079" lon="17.7170482">
        <ele>45.3192</ele>
        <time>2014-07-24T21:07:05Z</time>
      </trkpt>
      <trkpt lat="59.9529072" lon="17.7171059">
        <ele>46.2806</ele>
        <time>2014-07-24T21:07:06Z</time>
      </trkpt>
      <trkpt lat="59.9528996" lon="17.7171591">
        <ele>46.7612</ele>
        <time>2014-07-24T21:07:07Z</time>
      </trkpt>
      <trkpt lat="59.9528891" lon="17.7172024">
        <ele>46.2806</ele>
        <time>2014-07-24T21:07:08Z</time>
      </trkpt>
      <trkpt lat="59.9528807" lon="17.7172466">
        <ele>45.7999</ele>
        <time>2014-07-24T21:07:09Z</time>
      </trkpt>
      <trkpt lat="59.9528723" lon="17.7172897">
        <ele>46.2806</ele>
        <time>2014-07-24T21:07:10Z</time>
      </trkpt>
      <trkpt lat="59.9528585" lon="17.7173283">
        <ele>46.2806</ele>
        <time>2014-07-24T21:07:11Z</time>
      </trkpt>
      <trkpt lat="59.9528439" lon="17.7173703">
        <ele>46.7612</ele>
        <time>2014-07-24T21:07:12Z</time>
      </trkpt>
      <trkpt lat="59.952836" lon="17.717419">
        <ele>46.7612</ele>
        <time>2014-07-24T21:07:13Z</time>
      </trkpt>
      <trkpt lat="59.9528245" lon="17.7174662">
        <ele>46.2806</ele>
        <time>2014-07-24T21:07:14Z</time>
      </trkpt>
      <trkpt lat="59.952814" lon="17.7175051">
        <ele>45.3192</ele>
        <time>2014-07-24T21:07:15Z</time>
      </trkpt>
      <trkpt lat="59.9528057" lon="17.7175482">
        <ele>44.8386</ele>
        <time>2014-07-24T21:07:16Z</time>
      </trkpt>
      <trkpt lat="59.9527947" lon="17.7175939">
        <ele>44.8386</ele>
        <time>2014-07-24T21:07:17Z</time>
      </trkpt>
      <trkpt lat="59.9527807" lon="17.7176388">
        <ele>45.7999</ele>
        <time>2014-07-24T21:07:18Z</time>
      </trkpt>
      <trkpt lat="59.952767" lon="17.7176806">
        <ele>45.7999</ele>
        <time>2014-07-24T21:07:19Z</time>
      </trkpt>
      <trkpt lat="59.9527512" lon="17.7177217">
        <ele>44.8386</ele>
        <time>2014-07-24T21:07:20Z</time>
      </trkpt>
      <trkpt lat="59.9527391" lon="17.7177552">
        <ele>44.358</ele>
        <time>2014-07-24T21:07:21Z</time>
      </trkpt>
      <trkpt lat="59.9527275" lon="17.7177994">
        <ele>43.3966</ele>
        <time>2014-07-24T21:07:22Z</time>
      </trkpt>
      <trkpt lat="59.9527186" lon="17.717838">
        <ele>42.4354</ele>
        <time>2014-07-24T21:07:23Z</time>
      </trkpt>
      <trkpt lat="59.9527112" lon="17.7178722">
        <ele>42.4354</ele>
        <time>2014-07-24T21:07:24Z</time>
      </trkpt>
      <trkpt lat="59.9527009" lon="17.7179144">
        <ele>41.9547</ele>
        <time>2014-07-24T21:07:25Z</time>
      </trkpt>
      <trkpt lat="59.9526867" lon="17.7179553">
        <ele>42.4354</ele>
        <time>2014-07-24T21:07:26Z</time>
      </trkpt>
      <trkpt lat="59.952675" lon="17.7180114">
        <ele>40.5128</ele>
        <time>2014-07-24T21:07:27Z</time>
      </trkpt>
      <trkpt lat="59.9526658" lon="17.718063">
        <ele>39.0707</ele>
        <time>2014-07-24T21:07:28Z</time>
      </trkpt>
      <trkpt lat="59.9526574" lon="17.71811">
        <ele>38.1094</ele>
        <time>2014-07-24T21:07:29Z</time>
      </trkpt>
      <trkpt lat="59.952648" lon="17.7181518">
        <ele>38.1094</ele>
        <time>2014-07-24T21:07:30Z</time>
      </trkpt>
      <trkpt lat="59.9526408" lon="17.718194">
        <ele>37.6287</ele>
        <time>2014-07-24T21:07:31Z</time>
      </trkpt>
      <trkpt lat="59.952636" lon="17.718235">
        <ele>37.1481</ele>
        <time>2014-07-24T21:07:32Z</time>
      </trkpt>
      <trkpt lat="59.9526321" lon="17.7182805">
        <ele>36.6675</ele>
        <time>2014-07-24T21:07:33Z</time>
      </trkpt>
      <trkpt lat="59.9526233" lon="17.7183334">
        <ele>35.7061</ele>
        <time>2014-07-24T21:07:34Z</time>
      </trkpt>
      <trkpt lat="59.9526108" lon="17.7183837">
        <ele>36.6675</ele>
        <time>2014-07-24T21:07:35Z</time>
      </trkpt>
      <trkpt lat="59.9525943" lon="17.7184427">
        <ele>39.0707</ele>
        <time>2014-07-24T21:07:36Z</time>
      </trkpt>
      <trkpt lat="59.9525837" lon="17.7184935">
        <ele>40.9934</ele>
        <time>2014-07-24T21:07:37Z</time>
      </trkpt>
      <trkpt lat="59.9525713" lon="17.7185358">
        <ele>41.9547</ele>
        <time>2014-07-24T21:07:38Z</time>
      </trkpt>
      <trkpt lat="59.9525531" lon="17.71858">
        <ele>41.474</ele>
        <time>2014-07-24T21:07:39Z</time>
      </trkpt>
      <trkpt lat="59.9525438" lon="17.7186229">
        <ele>40.9934</ele>
        <time>2014-07-24T21:07:40Z</time>
      </trkpt>
      <trkpt lat="59.9525414" lon="17.7186684">
        <ele>41.474</ele>
        <time>2014-07-24T21:07:41Z</time>
      </trkpt>
      <trkpt lat="59.9525366" lon="17.7187107">
        <ele>41.474</ele>
        <time>2014-07-24T21:07:42Z</time>
      </trkpt>
      <trkpt lat="59.9525283" lon="17.7187536">
        <ele>42.4354</ele>
        <time>2014-07-24T21:07:43Z</time>
      </trkpt>
      <trkpt lat="59.9525202" lon="17.7187945">
        <ele>43.3966</ele>
        <time>2014-07-24T21:07:44Z</time>
      </trkpt>
      <trkpt lat="59.9525133" lon="17.7188276">
        <ele>43.3966</ele>
        <time>2014-07-24T21:07:45Z</time>
      </trkpt>
      <trkpt lat="59.952502" lon="17.718865">
        <ele>44.358</ele>
        <time>2014-07-24T21:07:46Z</time>
      </trkpt>
      <trkpt lat="59.952485" lon="17.7189022">
        <ele>45.3192</ele>
        <time>2014-07-24T21:07:47Z</time>
      </trkpt>
      <trkpt lat="59.9524708" lon="17.7189421">
        <ele>46.2806</ele>
        <time>2014-07-24T21:07:48Z</time>
      </trkpt>
      <trkpt lat="59.9524626" lon="17.7189828">
        <ele>46.7612</ele>
        <time>2014-07-24T21:07:49Z</time>
      </trkpt>
      <trkpt lat="59.9524558" lon="17.7190209">
        <ele>47.7225</ele>
        <time>2014-07-24T21:07:50Z</time>
      </trkpt>
      <trkpt lat="59.9524469" lon="17.7190664">
        <ele>48.684</ele>
        <time>2014-07-24T21:07:51Z</time>
      </trkpt>
      <trkpt lat="59.952443" lon="17.7191063">
        <ele>49.1646</ele>
        <time>2014-07-24T21:07:52Z</time>
      </trkpt>
      <trkpt lat="59.9524422" lon="17.7191453">
        <ele>50.126</ele>
        <time>2014-07-24T21:07:53Z</time>
      </trkpt>
      <trkpt lat="59.9524386" lon="17.7191834">
        <ele>51.0872</ele>
        <time>2014-07-24T21:07:54Z</time>
      </trkpt>
      <trkpt lat="59.9524311" lon="17.7192239">
        <ele>51.0872</ele>
        <time>2014-07-24T21:07:55Z</time>
      </trkpt>
      <trkpt lat="59.9524257" lon="17.7192695">
        <ele>50.6066</ele>
        <time>2014-07-24T21:07:56Z</time>
      </trkpt>
      <trkpt lat="59.9524228" lon="17.7193183">
        <ele>50.126</ele>
        <time>2014-07-24T21:07:57Z</time>
      </trkpt>
      <trkpt lat="59.9524232" lon="17.719368">
        <ele>51.0872</ele>
        <time>2014-07-24T21:07:58Z</time>
      </trkpt>
      <trkpt lat="59.9524258" lon="17.719417">
        <ele>52.0486</ele>
        <time>2014-07-24T21:07:59Z</time>
      </trkpt>
      <trkpt lat="59.9524361" lon="17.7194693">
        <ele>52.0486</ele>
        <time>2014-07-24T21:08:00Z</time>
      </trkpt>
      <trkpt lat="59.9524419" lon="17.7195223">
        <ele>53.0098</ele>
        <time>2014-07-24T21:08:01Z</time>
      </trkpt>
      <trkpt lat="59.9524512" lon="17.7195752">
        <ele>53.0098</ele>
        <time>2014-07-24T21:08:02Z</time>
      </trkpt>
      <trkpt lat="59.952464" lon="17.7196289">
        <ele>53.9712</ele>
        <time>2014-07-24T21:08:03Z</time>
      </trkpt>
      <trkpt lat="59.9524765" lon="17.7196801">
        <ele>53.9712</ele>
        <time>2014-07-24T21:08:04Z</time>
      </trkpt>
      <trkpt lat="59.9524847" lon="17.7197357">
        <ele>54.9324</ele>
        <time>2014-07-24T21:08:05Z</time>
      </trkpt>
      <trkpt lat="59.9524958" lon="17.7197894">
        <ele>55.4131</ele>
        <time>2014-07-24T21:08:06Z</time>
      </trkpt>
      <trkpt lat="59.9525062" lon="17.7198343">
        <ele>55.4131</ele>
        <time>2014-07-24T21:08:07Z</time>
      </trkpt>
      <trkpt lat="59.9525109" lon="17.7198767">
        <ele>55.8938</ele>
        <time>2014-07-24T21:08:08Z</time>
      </trkpt>
      <trkpt lat="59.9525172" lon="17.7199223">
        <ele>56.3745</ele>
        <time>2014-07-24T21:08:09Z</time>
      </trkpt>
      <trkpt lat="59.9525216" lon="17.7199699">
        <ele>55.4131</ele>
        <time>2014-07-24T21:08:10Z</time>
      </trkpt>
      <trkpt lat="59.9525273" lon="17.7200191">
        <ele>55.4131</ele>
        <time>2014-07-24T21:08:11Z</time>
      </trkpt>
      <trkpt lat="59.9525305" lon="17.7200671">
        <ele>55.8938</ele>
        <time>2014-07-24T21:08:12Z</time>
      </trkpt>
      <trkpt lat="59.9525269" lon="17.7201183">
        <ele>56.3745</ele>
        <time>2014-07-24T21:08:13Z</time>
      </trkpt>
      <trkpt lat="59.9525207" lon="17.7201775">
        <ele>56.8551</ele>
        <time>2014-07-24T21:08:14Z</time>
      </trkpt>
      <trkpt lat="59.9525181" lon="17.7202333">
        <ele>56.3745</ele>
        <time>2014-07-24T21:08:15Z</time>
      </trkpt>
      <trkpt lat="59.9525211" lon="17.7202848">
        <ele>56.8551</ele>
        <time>2014-07-24T21:08:16Z</time>
      </trkpt>
      <trkpt lat="59.9525207" lon="17.7203359">
        <ele>56.8551</ele>
        <time>2014-07-24T21:08:17Z</time>
      </trkpt>
      <trkpt lat="59.9525135" lon="17.7203846">
        <ele>55.8938</ele>
        <time>2014-07-24T21:08:18Z</time>
      </trkpt>
      <trkpt lat="59.9525081" lon="17.720436">
        <ele>55.4131</ele>
        <time>2014-07-24T21:08:19Z</time>
      </trkpt>
      <trkpt lat="59.9525035" lon="17.7204888">
        <ele>55.4131</ele>
        <time>2014-07-24T21:08:20Z</time>
      </trkpt>
      <trkpt lat="59.9524995" lon="17.7205413">
        <ele>55.4131</ele>
        <time>2014-07-24T21:08:21Z</time>
      </trkpt>
      <trkpt lat="59.9524956" lon="17.7205956">
        <ele>54.9324</ele>
        <time>2014-07-24T21:08:22Z</time>
      </trkpt>
      <trkpt lat="59.9524943" lon="17.7206448">
        <ele>54.9324</ele>
        <time>2014-07-24T21:08:23Z</time>
      </trkpt>
      <trkpt lat="59.9524931" lon="17.7206946">
        <ele>55.4131</ele>
        <time>2014-07-24T21:08:24Z</time>
      </trkpt>
      <trkpt lat="59.9524956" lon="17.720747">
        <ele>54.4518</ele>
        <time>2014-07-24T21:08:25Z</time>
      </trkpt>
      <trkpt lat="59.9525024" lon="17.7207982">
        <ele>54.4518</ele>
        <time>2014-07-24T21:08:26Z</time>
      </trkpt>
      <trkpt lat="59.9525137" lon="17.7208462">
        <ele>54.4518</ele>
        <time>2014-07-24T21:08:27Z</time>
      </trkpt>
      <trkpt lat="59.9525242" lon="17.7208928">
        <ele>54.4518</ele>
        <time>2014-07-24T21:08:28Z</time>
      </trkpt>
      <trkpt lat="59.9525252" lon="17.7209448">
        <ele>53.9712</ele>
        <time>2014-07-24T21:08:29Z</time>
      </trkpt>
      <trkpt lat="59.9525246" lon="17.720998">
        <ele>53.4905</ele>
        <time>2014-07-24T21:08:30Z</time>
      </trkpt>
      <trkpt lat="59.9525232" lon="17.7210504">
        <ele>53.4905</ele>
        <time>2014-07-24T21:08:31Z</time>
      </trkpt>
      <trkpt lat="59.9525203" lon="17.7211022">
        <ele>53.4905</ele>
        <time>2014-07-24T21:08:32Z</time>
      </trkpt>
      <trkpt lat="59.9525259" lon="17.7211588">
        <ele>53.0098</ele>
        <time>2014-07-24T21:08:33Z</time>
      </trkpt>
      <trkpt lat="59.9525316" lon="17.7212122">
        <ele>53.0098</ele>
        <time>2014-07-24T21:08:34Z</time>
      </trkpt>
      <trkpt lat="59.9525357" lon="17.7212621">
        <ele>53.0098</ele>
        <time>2014-07-24T21:08:35Z</time>
      </trkpt>
      <trkpt lat="59.9525352" lon="17.7213156">
        <ele>52.5292</ele>
        <time>2014-07-24T21:08:36Z</time>
      </trkpt>
      <trkpt lat="59.9525313" lon="17.7213674">
        <ele>52.5292</ele>
        <time>2014-07-24T21:08:37Z</time>
      </trkpt>
      <trkpt lat="59.9525324" lon="17.7214139">
        <ele>52.0486</ele>
        <time>2014-07-24T21:08:38Z</time>
      </trkpt>
      <trkpt lat="59.9525317" lon="17.7214594">
        <ele>52.0486</ele>
        <time>2014-07-24T21:08:39Z</time>
      </trkpt>
      <trkpt lat="59.9525248" lon="17.7215038">
        <ele>51.5679</ele>
        <time>2014-07-24T21:08:40Z</time>
      </trkpt>
      <trkpt lat="59.9525217" lon="17.721552">
        <ele>51.5679</ele>
        <time>2014-07-24T21:08:41Z</time>
      </trkpt>
      <trkpt lat="59.9525265" lon="17.7216009">
        <ele>51.5679</ele>
        <time>2014-07-24T21:08:42Z</time>
      </trkpt>
      <trkpt lat="59.95253" lon="17.7216472">
        <ele>52.0486</ele>
        <time>2014-07-24T21:08:43Z</time>
      </trkpt>
      <trkpt lat="59.9525362" lon="17.721699">
        <ele>52.5292</ele>
        <time>2014-07-24T21:08:44Z</time>
      </trkpt>
      <trkpt lat="59.9525435" lon="17.7217532">
        <ele>52.5292</ele>
        <time>2014-07-24T21:08:45Z</time>
      </trkpt>
      <trkpt lat="59.9525508" lon="17.7217996">
        <ele>52.5292</ele>
        <time>2014-07-24T21:08:46Z</time>
      </trkpt>
      <trkpt lat="59.952555" lon="17.7218452">
        <ele>53.0098</ele>
        <time>2014-07-24T21:08:47Z</time>
      </trkpt>
      <trkpt lat="59.9525621" lon="17.7218984">
        <ele>53.0098</ele>
        <time>2014-07-24T21:08:48Z</time>
      </trkpt>
      <trkpt lat="59.9525704" lon="17.7219503">
        <ele>52.5292</ele>
        <time>2014-07-24T21:08:49Z</time>
      </trkpt>
      <trkpt lat="59.9525729" lon="17.7219994">
        <ele>53.0098</ele>
        <time>2014-07-24T21:08:50Z</time>
      </trkpt>
      <trkpt lat="59.9525829" lon="17.7220523">
        <ele>52.5292</ele>
        <time>2014-07-24T21:08:51Z</time>
      </trkpt>
      <trkpt lat="59.9525855" lon="17.7221011">
        <ele>52.0486</ele>
        <time>2014-07-24T21:08:52Z</time>
      </trkpt>
      <trkpt lat="59.9525771" lon="17.7221553">
        <ele>52.0486</ele>
        <time>2014-07-24T21:08:53Z</time>
      </trkpt>
      <trkpt lat="59.9525671" lon="17.7222096">
        <ele>53.0098</ele>
        <time>2014-07-24T21:08:54Z</time>
      </trkpt>
      <trkpt lat="59.9525564" lon="17.7222584">
        <ele>54.9324</ele>
        <time>2014-07-24T21:08:55Z</time>
      </trkpt>
      <trkpt lat="59.9525526" lon="17.7223118">
        <ele>55.4131</ele>
        <time>2014-07-24T21:08:56Z</time>
      </trkpt>
      <trkpt lat="59.9525467" lon="17.7223625">
        <ele>54.9324</ele>
        <time>2014-07-24T21:08:57Z</time>
      </trkpt>
      <trkpt lat="59.9525456" lon="17.7224045">
        <ele>53.4905</ele>
        <time>2014-07-24T21:08:58Z</time>
      </trkpt>
      <trkpt lat="59.9525378" lon="17.7224466">
        <ele>52.5292</ele>
        <time>2014-07-24T21:08:59Z</time>
      </trkpt>
      <trkpt lat="59.9525273" lon="17.7224967">
        <ele>52.0486</ele>
        <time>2014-07-24T21:09:00Z</time>
      </trkpt>
      <trkpt lat="59.952516" lon="17.7225449">
        <ele>52.0486</ele>
        <time>2014-07-24T21:09:01Z</time>
      </trkpt>
      <trkpt lat="59.9525054" lon="17.7226007">
        <ele>51.5679</ele>
        <time>2014-07-24T21:09:02Z</time>
      </trkpt>
      <trkpt lat="59.9524984" lon="17.7226561">
        <ele>51.5679</ele>
        <time>2014-07-24T21:09:03Z</time>
      </trkpt>
      <trkpt lat="59.9524853" lon="17.722707">
        <ele>50.6066</ele>
        <time>2014-07-24T21:09:04Z</time>
      </trkpt>
      <trkpt lat="59.9524775" lon="17.7227568">
        <ele>50.126</ele>
        <time>2014-07-24T21:09:05Z</time>
      </trkpt>
      <trkpt lat="59.9524752" lon="17.7228092">
        <ele>49.1646</ele>
        <time>2014-07-24T21:09:06Z</time>
      </trkpt>
      <trkpt lat="59.9524844" lon="17.7228441">
        <ele>49.6453</ele>
        <time>2014-07-24T21:09:07Z</time>
      </trkpt>
      <trkpt lat="59.9524896" lon="17.7228484">
        <ele>49.1646</ele>
        <time>2014-07-24T21:09:08Z</time>
      </trkpt>
      <trkpt lat="59.9524958" lon="17.7228059">
        <ele>47.7225</ele>
        <time>2014-07-24T21:09:09Z</time>
      </trkpt>
      <trkpt lat="59.9525044" lon="17.7227485">
        <ele>47.7225</ele>
        <time>2014-07-24T21:09:10Z</time>
      </trkpt>
      <trkpt lat="59.9525163" lon="17.7226987">
        <ele>47.2418</ele>
        <time>2014-07-24T21:09:11Z</time>
      </trkpt>
      <trkpt lat="59.9525319" lon="17.7226587">
        <ele>47.2418</ele>
        <time>2014-07-24T21:09:12Z</time>
      </trkpt>
      <trkpt lat="59.9525461" lon="17.7226241">
        <ele>46.7612</ele>
        <time>2014-07-24T21:09:13Z</time>
      </trkpt>
      <trkpt lat="59.9525624" lon="17.7225843">
        <ele>46.7612</ele>
        <time>2014-07-24T21:09:14Z</time>
      </trkpt>
      <trkpt lat="59.9525777" lon="17.7225468">
        <ele>46.7612</ele>
        <time>2014-07-24T21:09:15Z</time>
      </trkpt>
      <trkpt lat="59.9525927" lon="17.7225262">
        <ele>46.2806</ele>
        <time>2014-07-24T21:09:16Z</time>
      </trkpt>
      <trkpt lat="59.9526098" lon="17.7225048">
        <ele>45.7999</ele>
        <time>2014-07-24T21:09:17Z</time>
      </trkpt>
      <trkpt lat="59.9526254" lon="17.7224751">
        <ele>44.8386</ele>
        <time>2014-07-24T21:09:18Z</time>
      </trkpt>
      <trkpt lat="59.9526438" lon="17.7224412">
        <ele>44.8386</ele>
        <time>2014-07-24T21:09:19Z</time>
      </trkpt>
      <trkpt lat="59.9526636" lon="17.7224128">
        <ele>44.358</ele>
        <time>2014-07-24T21:09:20Z</time>
      </trkpt>
      <trkpt lat="59.952688" lon="17.7223947">
        <ele>44.358</ele>
        <time>2014-07-24T21:09:21Z</time>
      </trkpt>
      <trkpt lat="59.9527134" lon="17.7223766">
        <ele>43.8773</ele>
        <time>2014-07-24T21:09:22Z</time>
      </trkpt>
      <trkpt lat="59.9527365" lon="17.7223567">
        <ele>42.4354</ele>
        <time>2014-07-24T21:09:23Z</time>
      </trkpt>
      <trkpt lat="59.9527622" lon="17.7223335">
        <ele>41.9547</ele>
        <time>2014-07-24T21:09:24Z</time>
      </trkpt>
      <trkpt lat="59.9527895" lon="17.7223092">
        <ele>41.474</ele>
        <time>2014-07-24T21:09:25Z</time>
      </trkpt>
      <trkpt lat="59.9528139" lon="17.7222891">
        <ele>41.474</ele>
        <time>2014-07-24T21:09:26Z</time>
      </trkpt>
      <trkpt lat="59.9528367" lon="17.7222653">
        <ele>40.9934</ele>
        <time>2014-07-24T21:09:27Z</time>
      </trkpt>
      <trkpt lat="59.9528615" lon="17.7222403">
        <ele>41.474</ele>
        <time>2014-07-24T21:09:28Z</time>
      </trkpt>
      <trkpt lat="59.9528851" lon="17.7222118">
        <ele>40.9934</ele>
        <time>2014-07-24T21:09:29Z</time>
      </trkpt>
      <trkpt lat="59.952911" lon="17.7221805">
        <ele>40.9934</ele>
        <time>2014-07-24T21:09:30Z</time>
      </trkpt>
      <trkpt lat="59.9529392" lon="17.7221533">
        <ele>40.9934</ele>
        <time>2014-07-24T21:09:31Z</time>
      </trkpt>
      <trkpt lat="59.9529667" lon="17.7221292">
        <ele>41.9547</ele>
        <time>2014-07-24T21:09:32Z</time>
      </trkpt>
      <trkpt lat="59.9529951" lon="17.722104">
        <ele>41.9547</ele>
        <time>2014-07-24T21:09:33Z</time>
      </trkpt>
      <trkpt lat="59.9530222" lon="17.7220879">
        <ele>42.4354</ele>
        <time>2014-07-24T21:09:34Z</time>
      </trkpt>
      <trkpt lat="59.9530453" lon="17.7220667">
        <ele>42.4354</ele>
        <time>2014-07-24T21:09:35Z</time>
      </trkpt>
      <trkpt lat="59.9530659" lon="17.72205">
        <ele>41.9547</ele>
        <time>2014-07-24T21:09:36Z</time>
      </trkpt>
      <trkpt lat="59.9530854" lon="17.7220347">
        <ele>41.474</ele>
        <time>2014-07-24T21:09:37Z</time>
      </trkpt>
      <trkpt lat="59.9531071" lon="17.7220169">
        <ele>41.474</ele>
        <time>2014-07-24T21:09:38Z</time>
      </trkpt>
      <trkpt lat="59.9531282" lon="17.7219923">
        <ele>40.9934</ele>
        <time>2014-07-24T21:09:39Z</time>
      </trkpt>
      <trkpt lat="59.9531514" lon="17.7219635">
        <ele>40.5128</ele>
        <time>2014-07-24T21:09:40Z</time>
      </trkpt>
      <trkpt lat="59.9531737" lon="17.721936">
        <ele>40.5128</ele>
        <time>2014-07-24T21:09:41Z</time>
      </trkpt>
      <trkpt lat="59.953194" lon="17.7219118">
        <ele>39.5513</ele>
        <time>2014-07-24T21:09:42Z</time>
      </trkpt>
      <trkpt lat="59.9532147" lon="17.7218917">
        <ele>39.5513</ele>
        <time>2014-07-24T21:09:43Z</time>
      </trkpt>
      <trkpt lat="59.9532339" lon="17.7218668">
        <ele>39.5513</ele>
        <time>2014-07-24T21:09:44Z</time>
      </trkpt>
      <trkpt lat="59.9532501" lon="17.721835">
        <ele>39.0707</ele>
        <time>2014-07-24T21:09:45Z</time>
      </trkpt>
      <trkpt lat="59.9532687" lon="17.7218039">
        <ele>38.5901</ele>
        <time>2014-07-24T21:09:46Z</time>
      </trkpt>
      <trkpt lat="59.9532884" lon="17.7217652">
        <ele>38.1094</ele>
        <time>2014-07-24T21:09:47Z</time>
      </trkpt>
      <trkpt lat="59.9533086" lon="17.7217326">
        <ele>38.1094</ele>
        <time>2014-07-24T21:09:48Z</time>
      </trkpt>
      <trkpt lat="59.9533252" lon="17.721696">
        <ele>38.1094</ele>
        <time>2014-07-24T21:09:49Z</time>
      </trkpt>
      <trkpt lat="59.9533391" lon="17.7216517">
        <ele>38.1094</ele>
        <time>2014-07-24T21:09:50Z</time>
      </trkpt>
      <trkpt lat="59.9533498" lon="17.7216107">
        <ele>38.1094</ele>
        <time>2014-07-24T21:09:51Z</time>
      </trkpt>
      <trkpt lat="59.9533609" lon="17.721557">
        <ele>38.5901</ele>
        <time>2014-07-24T21:09:52Z</time>
      </trkpt>
      <trkpt lat="59.9533697" lon="17.7214958">
        <ele>39.5513</ele>
        <time>2014-07-24T21:09:53Z</time>
      </trkpt>
      <trkpt lat="59.95337" lon="17.7214097">
        <ele>40.0321</ele>
        <time>2014-07-24T21:09:54Z</time>
      </trkpt>
      <trkpt lat="59.9533659" lon="17.7213127">
        <ele>40.0321</ele>
        <time>2014-07-24T21:09:55Z</time>
      </trkpt>
      <trkpt lat="59.9533644" lon="17.7212307">
        <ele>40.5128</ele>
        <time>2014-07-24T21:09:56Z</time>
      </trkpt>
      <trkpt lat="59.9533651" lon="17.7211562">
        <ele>40.9934</ele>
        <time>2014-07-24T21:09:57Z</time>
      </trkpt>
      <trkpt lat="59.953368" lon="17.7210836">
        <ele>41.474</ele>
        <time>2014-07-24T21:09:58Z</time>
      </trkpt>
      <trkpt lat="59.9533701" lon="17.7210209">
        <ele>41.9547</ele>
        <time>2014-07-24T21:09:59Z</time>
      </trkpt>
      <trkpt lat="59.9533724" lon="17.7209571">
        <ele>42.4354</ele>
        <time>2014-07-24T21:10:00Z</time>
      </trkpt>
      <trkpt lat="59.9533749" lon="17.7208902">
        <ele>42.4354</ele>
        <time>2014-07-24T21:10:01Z</time>
      </trkpt>
      <trkpt lat="59.9533749" lon="17.7208259">
        <ele>42.916</ele>
        <time>2014-07-24T21:10:02Z</time>
      </trkpt>
      <trkpt lat="59.9533816" lon="17.7207686">
        <ele>42.916</ele>
        <time>2014-07-24T21:10:03Z</time>
      </trkpt>
      <trkpt lat="59.9533851" lon="17.7207114">
        <ele>42.916</ele>
        <time>2014-07-24T21:10:04Z</time>
      </trkpt>
      <trkpt lat="59.9533863" lon="17.7206557">
        <ele>42.916</ele>
        <time>2014-07-24T21:10:05Z</time>
      </trkpt>
      <trkpt lat="59.9533915" lon="17.7205962">
        <ele>43.3966</ele>
        <time>2014-07-24T21:10:06Z</time>
      </trkpt>
      <trkpt lat="59.9534017" lon="17.7205362">
        <ele>43.3966</ele>
        <time>2014-07-24T21:10:07Z</time>
      </trkpt>
      <trkpt lat="59.9534121" lon="17.7204894">
        <ele>43.8773</ele>
        <time>2014-07-24T21:10:08Z</time>
      </trkpt>
      <trkpt lat="59.9534231" lon="17.7204397">
        <ele>43.8773</ele>
        <time>2014-07-24T21:10:09Z</time>
      </trkpt>
      <trkpt lat="59.9534381" lon="17.7203896">
        <ele>43.3966</ele>
        <time>2014-07-24T21:10:10Z</time>
      </trkpt>
      <trkpt lat="59.953451" lon="17.7203413">
        <ele>43.3966</ele>
        <time>2014-07-24T21:10:11Z</time>
      </trkpt>
      <trkpt lat="59.9534593" lon="17.7203004">
        <ele>43.3966</ele>
        <time>2014-07-24T21:10:12Z</time>
      </trkpt>
      <trkpt lat="59.9534713" lon="17.7202621">
        <ele>43.3966</ele>
        <time>2014-07-24T21:10:13Z</time>
      </trkpt>
      <trkpt lat="59.9534908" lon="17.7202266">
        <ele>43.8773</ele>
        <time>2014-07-24T21:10:14Z</time>
      </trkpt>
      <trkpt lat="59.9535142" lon="17.7201997">
        <ele>43.8773</ele>
        <time>2014-07-24T21:10:15Z</time>
      </trkpt>
      <trkpt lat="59.9535369" lon="17.7201708">
        <ele>43.8773</ele>
        <time>2014-07-24T21:10:16Z</time>
      </trkpt>
      <trkpt lat="59.9535608" lon="17.7201461">
        <ele>43.3966</ele>
        <time>2014-07-24T21:10:17Z</time>
      </trkpt>
      <trkpt lat="59.9535853" lon="17.7201216">
        <ele>42.916</ele>
        <time>2014-07-24T21:10:18Z</time>
      </trkpt>
      <trkpt lat="59.9536059" lon="17.7200987">
        <ele>42.916</ele>
        <time>2014-07-24T21:10:19Z</time>
      </trkpt>
      <trkpt lat="59.9536254" lon="17.7200707">
        <ele>42.916</ele>
        <time>2014-07-24T21:10:20Z</time>
      </trkpt>
      <trkpt lat="59.9536477" lon="17.7200331">
        <ele>42.916</ele>
        <time>2014-07-24T21:10:21Z</time>
      </trkpt>
      <trkpt lat="59.9536746" lon="17.7199906">
        <ele>42.916</ele>
        <time>2014-07-24T21:10:22Z</time>
      </trkpt>
      <trkpt lat="59.9536995" lon="17.7199585">
        <ele>42.4354</ele>
        <time>2014-07-24T21:10:23Z</time>
      </trkpt>
      <trkpt lat="59.953724" lon="17.7199319">
        <ele>42.4354</ele>
        <time>2014-07-24T21:10:24Z</time>
      </trkpt>
      <trkpt lat="59.9537447" lon="17.7198979">
        <ele>41.9547</ele>
        <time>2014-07-24T21:10:25Z</time>
      </trkpt>
      <trkpt lat="59.9537687" lon="17.7198625">
        <ele>42.4354</ele>
        <time>2014-07-24T21:10:26Z</time>
      </trkpt>
      <trkpt lat="59.9537903" lon="17.7198283">
        <ele>42.4354</ele>
        <time>2014-07-24T21:10:27Z</time>
      </trkpt>
      <trkpt lat="59.953809" lon="17.7197959">
        <ele>42.4354</ele>
        <time>2014-07-24T21:10:28Z</time>
      </trkpt>
      <trkpt lat="59.9538224" lon="17.7197643">
        <ele>41.474</ele>
        <time>2014-07-24T21:10:29Z</time>
      </trkpt>
      <trkpt lat="59.953838" lon="17.7197274">
        <ele>40.9934</ele>
        <time>2014-07-24T21:10:30Z</time>
      </trkpt>
      <trkpt lat="59.9538555" lon="17.7196869">
        <ele>40.9934</ele>
        <time>2014-07-24T21:10:31Z</time>
      </trkpt>
      <trkpt lat="59.9538705" lon="17.7196487">
        <ele>40.9934</ele>
        <time>2014-07-24T21:10:32Z</time>
      </trkpt>
      <trkpt lat="59.9538837" lon="17.7196094">
        <ele>40.0321</ele>
        <time>2014-07-24T21:10:33Z</time>
      </trkpt>
      <trkpt lat="59.953895" lon="17.7195721">
        <ele>39.5513</ele>
        <time>2014-07-24T21:10:34Z</time>
      </trkpt>
      <trkpt lat="59.9539048" lon="17.7195347">
        <ele>38.5901</ele>
        <time>2014-07-24T21:10:35Z</time>
      </trkpt>
      <trkpt lat="59.9539179" lon="17.7194944">
        <ele>38.1094</ele>
        <time>2014-07-24T21:10:36Z</time>
      </trkpt>
      <trkpt lat="59.9539297" lon="17.7194456">
        <ele>37.6287</ele>
        <time>2014-07-24T21:10:37Z</time>
      </trkpt>
      <trkpt lat="59.9539383" lon="17.7193917">
        <ele>38.1094</ele>
        <time>2014-07-24T21:10:38Z</time>
      </trkpt>
      <trkpt lat="59.9539468" lon="17.7193361">
        <ele>37.6287</ele>
        <time>2014-07-24T21:10:39Z</time>
      </trkpt>
      <trkpt lat="59.9539531" lon="17.7192852">
        <ele>37.6287</ele>
        <time>2014-07-24T21:10:40Z</time>
      </trkpt>
      <trkpt lat="59.9539602" lon="17.7192364">
        <ele>37.6287</ele>
        <time>2014-07-24T21:10:41Z</time>
      </trkpt>
      <trkpt lat="59.9539695" lon="17.7191839">
        <ele>38.1094</ele>
        <time>2014-07-24T21:10:42Z</time>
      </trkpt>
      <trkpt lat="59.9539798" lon="17.7191301">
        <ele>38.5901</ele>
        <time>2014-07-24T21:10:43Z</time>
      </trkpt>
      <trkpt lat="59.9539899" lon="17.7190735">
        <ele>38.5901</ele>
        <time>2014-07-24T21:10:44Z</time>
      </trkpt>
      <trkpt lat="59.9539974" lon="17.7190136">
        <ele>39.0707</ele>
        <time>2014-07-24T21:10:45Z</time>
      </trkpt>
      <trkpt lat="59.9540058" lon="17.7189571">
        <ele>39.0707</ele>
        <time>2014-07-24T21:10:46Z</time>
      </trkpt>
      <trkpt lat="59.9540156" lon="17.7189012">
        <ele>40.0321</ele>
        <time>2014-07-24T21:10:47Z</time>
      </trkpt>
      <trkpt lat="59.9540246" lon="17.7188333">
        <ele>41.474</ele>
        <time>2014-07-24T21:10:48Z</time>
      </trkpt>
      <trkpt lat="59.9540346" lon="17.7187788">
        <ele>41.9547</ele>
        <time>2014-07-24T21:10:49Z</time>
      </trkpt>
      <trkpt lat="59.9540409" lon="17.718721">
        <ele>42.4354</ele>
        <time>2014-07-24T21:10:50Z</time>
      </trkpt>
      <trkpt lat="59.9540484" lon="17.7186532">
        <ele>42.4354</ele>
        <time>2014-07-24T21:10:51Z</time>
      </trkpt>
      <trkpt lat="59.9540477" lon="17.7185684">
        <ele>42.916</ele>
        <time>2014-07-24T21:10:52Z</time>
      </trkpt>
      <trkpt lat="59.9540448" lon="17.7184847">
        <ele>43.8773</ele>
        <time>2014-07-24T21:10:53Z</time>
      </trkpt>
      <trkpt lat="59.9540442" lon="17.7184086">
        <ele>44.358</ele>
        <time>2014-07-24T21:10:54Z</time>
      </trkpt>
      <trkpt lat="59.9540468" lon="17.7183288">
        <ele>44.358</ele>
        <time>2014-07-24T21:10:55Z</time>
      </trkpt>
      <trkpt lat="59.9540574" lon="17.7182602">
        <ele>44.358</ele>
        <time>2014-07-24T21:10:56Z</time>
      </trkpt>
      <trkpt lat="59.9540688" lon="17.7181973">
        <ele>43.8773</ele>
        <time>2014-07-24T21:10:57Z</time>
      </trkpt>
      <trkpt lat="59.9540878" lon="17.7181542">
        <ele>43.8773</ele>
        <time>2014-07-24T21:10:58Z</time>
      </trkpt>
      <trkpt lat="59.9541066" lon="17.718119">
        <ele>44.358</ele>
        <time>2014-07-24T21:10:59Z</time>
      </trkpt>
      <trkpt lat="59.9541263" lon="17.7180857">
        <ele>43.8773</ele>
        <time>2014-07-24T21:11:00Z</time>
      </trkpt>
      <trkpt lat="59.9541544" lon="17.7180585">
        <ele>43.8773</ele>
        <time>2014-07-24T21:11:01Z</time>
      </trkpt>
      <trkpt lat="59.954186" lon="17.7180445">
        <ele>43.8773</ele>
        <time>2014-07-24T21:11:02Z</time>
      </trkpt>
      <trkpt lat="59.9542128" lon="17.7180325">
        <ele>43.3966</ele>
        <time>2014-07-24T21:11:03Z</time>
      </trkpt>
      <trkpt lat="59.9542362" lon="17.7180184">
        <ele>42.916</ele>
        <time>2014-07-24T21:11:04Z</time>
      </trkpt>
      <trkpt lat="59.9542576" lon="17.7180054">
        <ele>42.916</ele>
        <time>2014-07-24T21:11:05Z</time>
      </trkpt>
      <trkpt lat="59.9542746" lon="17.7179854">
        <ele>42.916</ele>
        <time>2014-07-24T21:11:06Z</time>
      </trkpt>
      <trkpt lat="59.9542893" lon="17.7179572">
        <ele>42.4354</ele>
        <time>2014-07-24T21:11:07Z</time>
      </trkpt>
      <trkpt lat="59.9543067" lon="17.7179274">
        <ele>42.4354</ele>
        <time>2014-07-24T21:11:08Z</time>
      </trkpt>
      <trkpt lat="59.954324" lon="17.7178982">
        <ele>42.4354</ele>
        <time>2014-07-24T21:11:09Z</time>
      </trkpt>
      <trkpt lat="59.9543337" lon="17.7178682">
        <ele>42.4354</ele>
        <time>2014-07-24T21:11:10Z</time>
      </trkpt>
      <trkpt lat="59.9543429" lon="17.7178371">
        <ele>42.4354</ele>
        <time>2014-07-24T21:11:11Z</time>
      </trkpt>
      <trkpt lat="59.9543581" lon="17.7178117">
        <ele>41.9547</ele>
        <time>2014-07-24T21:11:12Z</time>
      </trkpt>
      <trkpt lat="59.9543751" lon="17.7177745">
        <ele>41.474</ele>
        <time>2014-07-24T21:11:13Z</time>
      </trkpt>
      <trkpt lat="59.9543931" lon="17.7177274">
        <ele>41.474</ele>
        <time>2014-07-24T21:11:14Z</time>
      </trkpt>
      <trkpt lat="59.9544117" lon="17.7176869">
        <ele>40.9934</ele>
        <time>2014-07-24T21:11:15Z</time>
      </trkpt>
      <trkpt lat="59.9544271" lon="17.7176451">
        <ele>40.9934</ele>
        <time>2014-07-24T21:11:16Z</time>
      </trkpt>
      <trkpt lat="59.9544456" lon="17.7175974">
        <ele>40.5128</ele>
        <time>2014-07-24T21:11:17Z</time>
      </trkpt>
      <trkpt lat="59.9544625" lon="17.7175578">
        <ele>40.0321</ele>
        <time>2014-07-24T21:11:18Z</time>
      </trkpt>
      <trkpt lat="59.9544757" lon="17.7175141">
        <ele>39.0707</ele>
        <time>2014-07-24T21:11:19Z</time>
      </trkpt>
      <trkpt lat="59.9544907" lon="17.7174671">
        <ele>39.0707</ele>
        <time>2014-07-24T21:11:20Z</time>
      </trkpt>
      <trkpt lat="59.9545051" lon="17.7174236">
        <ele>39.5513</ele>
        <time>2014-07-24T21:11:21Z</time>
      </trkpt>
      <trkpt lat="59.9545192" lon="17.7173854">
        <ele>39.5513</ele>
        <time>2014-07-24T21:11:22Z</time>
      </trkpt>
      <trkpt lat="59.9545353" lon="17.7173301">
        <ele>39.5513</ele>
        <time>2014-07-24T21:11:23Z</time>
      </trkpt>
      <trkpt lat="59.9545518" lon="17.7172902">
        <ele>40.5128</ele>
        <time>2014-07-24T21:11:24Z</time>
      </trkpt>
      <trkpt lat="59.9545659" lon="17.7172356">
        <ele>40.0321</ele>
        <time>2014-07-24T21:11:25Z</time>
      </trkpt>
      <trkpt lat="59.954587" lon="17.717173">
        <ele>39.0707</ele>
        <time>2014-07-24T21:11:26Z</time>
      </trkpt>
      <trkpt lat="59.9545969" lon="17.7171068">
        <ele>39.0707</ele>
        <time>2014-07-24T21:11:27Z</time>
      </trkpt>
      <trkpt lat="59.9546039" lon="17.7170504">
        <ele>38.1094</ele>
        <time>2014-07-24T21:11:28Z</time>
      </trkpt>
      <trkpt lat="59.9546042" lon="17.7169896">
        <ele>37.6287</ele>
        <time>2014-07-24T21:11:29Z</time>
      </trkpt>
      <trkpt lat="59.9546088" lon="17.7169336">
        <ele>36.6675</ele>
        <time>2014-07-24T21:11:30Z</time>
      </trkpt>
      <trkpt lat="59.9546086" lon="17.7168544">
        <ele>36.1868</ele>
        <time>2014-07-24T21:11:31Z</time>
      </trkpt>
      <trkpt lat="59.9546159" lon="17.7168022">
        <ele>35.7061</ele>
        <time>2014-07-24T21:11:32Z</time>
      </trkpt>
      <trkpt lat="59.9546194" lon="17.7167438">
        <ele>35.2255</ele>
        <time>2014-07-24T21:11:33Z</time>
      </trkpt>
      <trkpt lat="59.954627" lon="17.7167002">
        <ele>35.2255</ele>
        <time>2014-07-24T21:11:34Z</time>
      </trkpt>
      <trkpt lat="59.9546291" lon="17.7166342">
        <ele>34.2642</ele>
        <time>2014-07-24T21:11:35Z</time>
      </trkpt>
      <trkpt lat="59.9546339" lon="17.7165765">
        <ele>34.7449</ele>
        <time>2014-07-24T21:11:36Z</time>
      </trkpt>
      <trkpt lat="59.9546332" lon="17.7165106">
        <ele>34.7449</ele>
        <time>2014-07-24T21:11:37Z</time>
      </trkpt>
      <trkpt lat="59.9546393" lon="17.7164707">
        <ele>34.7449</ele>
        <time>2014-07-24T21:11:38Z</time>
      </trkpt>
      <trkpt lat="59.9546369" lon="17.7164109">
        <ele>34.2642</ele>
        <time>2014-07-24T21:11:39Z</time>
      </trkpt>
      <trkpt lat="59.9546417" lon="17.7163532">
        <ele>34.2642</ele>
        <time>2014-07-24T21:11:40Z</time>
      </trkpt>
      <trkpt lat="59.9546448" lon="17.7162853">
        <ele>33.7834</ele>
        <time>2014-07-24T21:11:41Z</time>
      </trkpt>
      <trkpt lat="59.9546508" lon="17.7162364">
        <ele>34.7449</ele>
        <time>2014-07-24T21:11:42Z</time>
      </trkpt>
      <trkpt lat="59.9546495" lon="17.7161589">
        <ele>34.7449</ele>
        <time>2014-07-24T21:11:43Z</time>
      </trkpt>
      <trkpt lat="59.9546417" lon="17.7160491">
        <ele>35.2255</ele>
        <time>2014-07-24T21:11:44Z</time>
      </trkpt>
      <trkpt lat="59.9546352" lon="17.7159351">
        <ele>36.1868</ele>
        <time>2014-07-24T21:11:45Z</time>
      </trkpt>
      <trkpt lat="59.9546336" lon="17.7158569">
        <ele>37.1481</ele>
        <time>2014-07-24T21:11:46Z</time>
      </trkpt>
      <trkpt lat="59.9546379" lon="17.715802">
        <ele>37.1481</ele>
        <time>2014-07-24T21:11:47Z</time>
      </trkpt>
      <trkpt lat="59.9546428" lon="17.7157557">
        <ele>37.1481</ele>
        <time>2014-07-24T21:11:48Z</time>
      </trkpt>
      <trkpt lat="59.9546502" lon="17.7157085">
        <ele>37.6287</ele>
        <time>2014-07-24T21:11:49Z</time>
      </trkpt>
      <trkpt lat="59.9546593" lon="17.7156638">
        <ele>37.6287</ele>
        <time>2014-07-24T21:11:50Z</time>
      </trkpt>
      <trkpt lat="59.9546683" lon="17.7156103">
        <ele>37.1481</ele>
        <time>2014-07-24T21:11:51Z</time>
      </trkpt>
      <trkpt lat="59.9546766" lon="17.7155428">
        <ele>36.1868</ele>
        <time>2014-07-24T21:11:52Z</time>
      </trkpt>
      <trkpt lat="59.9546849" lon="17.7154766">
        <ele>35.7061</ele>
        <time>2014-07-24T21:11:53Z</time>
      </trkpt>
      <trkpt lat="59.954688" lon="17.7153927">
        <ele>36.6675</ele>
        <time>2014-07-24T21:11:54Z</time>
      </trkpt>
      <trkpt lat="59.954684" lon="17.7153026">
        <ele>37.1481</ele>
        <time>2014-07-24T21:11:55Z</time>
      </trkpt>
      <trkpt lat="59.9546863" lon="17.7152285">
        <ele>37.1481</ele>
        <time>2014-07-24T21:11:56Z</time>
      </trkpt>
      <trkpt lat="59.9546943" lon="17.7151684">
        <ele>37.6287</ele>
        <time>2014-07-24T21:11:57Z</time>
      </trkpt>
      <trkpt lat="59.9547004" lon="17.7151026">
        <ele>37.6287</ele>
        <time>2014-07-24T21:11:58Z</time>
      </trkpt>
      <trkpt lat="59.9547102" lon="17.7150457">
        <ele>37.6287</ele>
        <time>2014-07-24T21:11:59Z</time>
      </trkpt>
      <trkpt lat="59.9547269" lon="17.7149923">
        <ele>37.1481</ele>
        <time>2014-07-24T21:12:00Z</time>
      </trkpt>
      <trkpt lat="59.954747" lon="17.7149439">
        <ele>36.1868</ele>
        <time>2014-07-24T21:12:01Z</time>
      </trkpt>
      <trkpt lat="59.9547681" lon="17.7148917">
        <ele>36.6675</ele>
        <time>2014-07-24T21:12:02Z</time>
      </trkpt>
      <trkpt lat="59.9547911" lon="17.7148382">
        <ele>37.1481</ele>
        <time>2014-07-24T21:12:03Z</time>
      </trkpt>
      <trkpt lat="59.9548156" lon="17.7147826">
        <ele>36.6675</ele>
        <time>2014-07-24T21:12:04Z</time>
      </trkpt>
      <trkpt lat="59.9548454" lon="17.714708">
        <ele>39.0707</ele>
        <time>2014-07-24T21:12:05Z</time>
      </trkpt>
      <trkpt lat="59.9548749" lon="17.7146338">
        <ele>39.5513</ele>
        <time>2014-07-24T21:12:06Z</time>
      </trkpt>
      <trkpt lat="59.9549044" lon="17.7145651">
        <ele>40.9934</ele>
        <time>2014-07-24T21:12:07Z</time>
      </trkpt>
      <trkpt lat="59.9549347" lon="17.7145042">
        <ele>40.9934</ele>
        <time>2014-07-24T21:12:08Z</time>
      </trkpt>
      <trkpt lat="59.9549626" lon="17.7144251">
        <ele>41.474</ele>
        <time>2014-07-24T21:12:09Z</time>
      </trkpt>
      <trkpt lat="59.954986" lon="17.7143604">
        <ele>41.9547</ele>
        <time>2014-07-24T21:12:10Z</time>
      </trkpt>
      <trkpt lat="59.9550097" lon="17.7143047">
        <ele>41.9547</ele>
        <time>2014-07-24T21:12:11Z</time>
      </trkpt>
      <trkpt lat="59.9550357" lon="17.7142576">
        <ele>41.474</ele>
        <time>2014-07-24T21:12:12Z</time>
      </trkpt>
      <trkpt lat="59.955062" lon="17.7142277">
        <ele>40.9934</ele>
        <time>2014-07-24T21:12:13Z</time>
      </trkpt>
      <trkpt lat="59.9550916" lon="17.7142147">
        <ele>41.474</ele>
        <time>2014-07-24T21:12:14Z</time>
      </trkpt>
      <trkpt lat="59.9551174" lon="17.7142074">
        <ele>41.474</ele>
        <time>2014-07-24T21:12:15Z</time>
      </trkpt>
      <trkpt lat="59.9551356" lon="17.7142006">
        <ele>41.474</ele>
        <time>2014-07-24T21:12:16Z</time>
      </trkpt>
      <trkpt lat="59.9551422" lon="17.7141657">
        <ele>41.9547</ele>
        <time>2014-07-24T21:12:17Z</time>
      </trkpt>
      <trkpt lat="59.9551489" lon="17.7141082">
        <ele>41.474</ele>
        <time>2014-07-24T21:12:18Z</time>
      </trkpt>
      <trkpt lat="59.9551625" lon="17.7140556">
        <ele>40.9934</ele>
        <time>2014-07-24T21:12:19Z</time>
      </trkpt>
      <trkpt lat="59.9551841" lon="17.7140294">
        <ele>40.5128</ele>
        <time>2014-07-24T21:12:20Z</time>
      </trkpt>
      <trkpt lat="59.9552024" lon="17.714023">
        <ele>40.5128</ele>
        <time>2014-07-24T21:12:21Z</time>
      </trkpt>
    </trkseg>
  </trk>
</gpx>